<?xml version='1.0' encoding='UTF-8'?><gpx version="1.1" creator="JPX - https://github.com/jenetics/jpx" xmlns="http://www.topografix.com/GPX/1/1"><trk><trkseg><trkpt lat="45.372096586784096" lon="10.530829025269897"><ele>109.99999999999999</ele><time>2026-04-12T08:16:36.999Z</time></trkpt><trkpt lat="45.372175286614144" lon="10.530835350423022"><ele>110.0</ele><time>2026-04-12T08:16:44.998Z</time></trkpt><trkpt lat="45.37225371860842" lon="10.53084949619109"><ele>110.0</ele><time>2026-04-12T08:16:52.998Z</time></trkpt><trkpt lat="45.372321268552945" lon="10.530827731685534"><ele>110.0</ele><time>2026-04-12T08:17:05.998Z</time></trkpt><trkpt lat="45.37240071847978" lon="10.530826082368094"><ele>109.99999999999999</ele><time>2026-04-12T08:17:11.998Z</time></trkpt><trkpt lat="45.37247701142618" lon="10.530838218047771"><ele>110.0</ele><time>2026-04-12T08:17:16.998Z</time></trkpt><trkpt lat="45.37254983380649" lon="10.530835647790083"><ele>110.57142857142856</ele><time>2026-04-12T08:17:19.998Z</time></trkpt><trkpt lat="45.372622333255556" lon="10.530834596249644"><ele>111.14285714285714</ele><time>2026-04-12T08:17:22.997Z</time></trkpt><trkpt lat="45.37269656439883" lon="10.530835834573043"><ele>111.71428571428571</ele><time>2026-04-12T08:17:25.997Z</time></trkpt><trkpt lat="45.37277271033127" lon="10.53082355058072"><ele>112.28571428571428</ele><time>2026-04-12T08:17:28.997Z</time></trkpt><trkpt lat="45.3728413122892" lon="10.530828340437573"><ele>112.85714285714285</ele><time>2026-04-12T08:17:31.997Z</time></trkpt><trkpt lat="45.37292137053419" lon="10.530831324922351"><ele>113.42857142857142</ele><time>2026-04-12T08:17:35.997Z</time></trkpt><trkpt lat="45.37299508650843" lon="10.53083418135964"><ele>114.0</ele><time>2026-04-12T08:17:39.997Z</time></trkpt><trkpt lat="45.37305823930322" lon="10.530842580562844"><ele>114.42857142857142</ele><time>2026-04-12T08:17:42.997Z</time></trkpt><trkpt lat="45.373126777968274" lon="10.530840595031872"><ele>114.85714285714285</ele><time>2026-04-12T08:17:45.997Z</time></trkpt><trkpt lat="45.373187098209534" lon="10.530889800993862"><ele>115.28571428571428</ele><time>2026-04-12T08:17:48.997Z</time></trkpt><trkpt lat="45.37321474904303" lon="10.530998082403821"><ele>115.71428571428572</ele><time>2026-04-12T08:17:52.997Z</time></trkpt><trkpt lat="45.37320192648969" lon="10.531088363306745"><ele>116.14285714285715</ele><time>2026-04-12T08:17:56.997Z</time></trkpt><trkpt lat="45.37321312349577" lon="10.531199160909575"><ele>116.57142857142858</ele><time>2026-04-12T08:18:02.996Z</time></trkpt><trkpt lat="45.37321168119375" lon="10.531295110960265"><ele>117.0</ele><time>2026-04-12T08:18:05.996Z</time></trkpt><trkpt lat="45.37322354174346" lon="10.531387146579558"><ele>117.71428571428572</ele><time>2026-04-12T08:18:08.996Z</time></trkpt><trkpt lat="45.37324541027744" lon="10.531474170680788"><ele>118.42857142857144</ele><time>2026-04-12T08:18:11.996Z</time></trkpt><trkpt lat="45.37330622463004" lon="10.531549949471497"><ele>119.14285714285714</ele><time>2026-04-12T08:18:15.996Z</time></trkpt><trkpt lat="45.37338459895851" lon="10.531573686672933"><ele>119.85714285714286</ele><time>2026-04-12T08:18:19.996Z</time></trkpt><trkpt lat="45.37345378509647" lon="10.531579638049461"><ele>120.57142857142857</ele><time>2026-04-12T08:18:23.996Z</time></trkpt><trkpt lat="45.37352137069864" lon="10.53157762382894"><ele>121.28571428571428</ele><time>2026-04-12T08:18:27.996Z</time></trkpt><trkpt lat="45.37359151514844" lon="10.531596491771142"><ele>121.99999999999999</ele><time>2026-04-12T08:18:31.996Z</time></trkpt><trkpt lat="45.373655734213536" lon="10.531603885461136"><ele>121.99999999999999</ele><time>2026-04-12T08:18:35.996Z</time></trkpt><trkpt lat="45.37372783327427" lon="10.531626675157911"><ele>122.0</ele><time>2026-04-12T08:18:39.996Z</time></trkpt><trkpt lat="45.37380750170095" lon="10.531636753188312"><ele>122.0</ele><time>2026-04-12T08:18:43.995Z</time></trkpt><trkpt lat="45.373880268536446" lon="10.531660140559039"><ele>122.0</ele><time>2026-04-12T08:18:47.995Z</time></trkpt><trkpt lat="45.37396113386813" lon="10.531677792355621"><ele>121.99999999999999</ele><time>2026-04-12T08:18:51.995Z</time></trkpt><trkpt lat="45.37404175237643" lon="10.531701242686031"><ele>122.0</ele><time>2026-04-12T08:18:55.995Z</time></trkpt><trkpt lat="45.37411348212004" lon="10.531723541279268"><ele>122.49999999999999</ele><time>2026-04-12T08:18:59.995Z</time></trkpt><trkpt lat="45.37418694207549" lon="10.531746951079256"><ele>123.0</ele><time>2026-04-12T08:19:04.995Z</time></trkpt><trkpt lat="45.37425454216807" lon="10.531778544996751"><ele>123.5</ele><time>2026-04-12T08:19:09.995Z</time></trkpt><trkpt lat="45.37431860528948" lon="10.531855566895612"><ele>124.0</ele><time>2026-04-12T08:19:12.995Z</time></trkpt><trkpt lat="45.37436934912478" lon="10.531957698823991"><ele>124.49999999999999</ele><time>2026-04-12T08:19:15.995Z</time></trkpt><trkpt lat="45.374422934036716" lon="10.532009348717487"><ele>125.0</ele><time>2026-04-12T08:19:17.995Z</time></trkpt><trkpt lat="45.374485715357125" lon="10.532054644245388"><ele>125.33333333333333</ele><time>2026-04-12T08:19:19.995Z</time></trkpt><trkpt lat="45.37455570331433" lon="10.532105153837579"><ele>125.66666666666666</ele><time>2026-04-12T08:19:22.994Z</time></trkpt><trkpt lat="45.37461635765375" lon="10.53214576422657"><ele>126.0</ele><time>2026-04-12T08:19:24.994Z</time></trkpt><trkpt lat="45.37469702922119" lon="10.532165530617235"><ele>126.33333333333334</ele><time>2026-04-12T08:19:27.994Z</time></trkpt><trkpt lat="45.37477204332785" lon="10.532173910658988"><ele>126.66666666666667</ele><time>2026-04-12T08:19:30.994Z</time></trkpt><trkpt lat="45.374836454417526" lon="10.53215200159369"><ele>127.0</ele><time>2026-04-12T08:19:33.994Z</time></trkpt><trkpt lat="45.37491449500712" lon="10.532087439276784"><ele>126.50000000000001</ele><time>2026-04-12T08:19:37.994Z</time></trkpt><trkpt lat="45.37497813903941" lon="10.532050293523854"><ele>126.0</ele><time>2026-04-12T08:19:40.994Z</time></trkpt><trkpt lat="45.37506026273638" lon="10.532033417175644"><ele>125.5</ele><time>2026-04-12T08:19:43.994Z</time></trkpt><trkpt lat="45.37513393192213" lon="10.531998636395112"><ele>125.0</ele><time>2026-04-12T08:19:46.994Z</time></trkpt><trkpt lat="45.37521889636049" lon="10.531968912615245"><ele>124.50000000000001</ele><time>2026-04-12T08:19:49.994Z</time></trkpt><trkpt lat="45.37529279435616" lon="10.53194572398019"><ele>124.0</ele><time>2026-04-12T08:19:52.994Z</time></trkpt><trkpt lat="45.37537473426424" lon="10.531949267586851"><ele>124.0</ele><time>2026-04-12T08:19:55.994Z</time></trkpt><trkpt lat="45.37540885052884" lon="10.532028342707807"><ele>124.00000000000001</ele><time>2026-04-12T08:19:58.994Z</time></trkpt><trkpt lat="45.37541674066441" lon="10.532117595447126"><ele>124.0</ele><time>2026-04-12T08:20:01.993Z</time></trkpt><trkpt lat="45.37545057537815" lon="10.532218483109123"><ele>124.0</ele><time>2026-04-12T08:20:05.993Z</time></trkpt><trkpt lat="45.37546446776463" lon="10.532313982374966"><ele>124.00000000000001</ele><time>2026-04-12T08:20:08.993Z</time></trkpt><trkpt lat="45.37547398571788" lon="10.532411051038526"><ele>124.0</ele><time>2026-04-12T08:20:11.993Z</time></trkpt><trkpt lat="45.375476272986326" lon="10.532512762942252"><ele>124.0</ele><time>2026-04-12T08:20:14.993Z</time></trkpt><trkpt lat="45.375470551165975" lon="10.532619217408367"><ele>124.42857142857143</ele><time>2026-04-12T08:20:17.993Z</time></trkpt><trkpt lat="45.37546406578245" lon="10.53273891963133"><ele>124.85714285714286</ele><time>2026-04-12T08:20:21.993Z</time></trkpt><trkpt lat="45.375453723349615" lon="10.532836142442585"><ele>125.28571428571429</ele><time>2026-04-12T08:20:24.993Z</time></trkpt><trkpt lat="45.37545078174645" lon="10.53292608440469"><ele>125.71428571428572</ele><time>2026-04-12T08:20:27.993Z</time></trkpt><trkpt lat="45.37544764352917" lon="10.53301692476909"><ele>126.14285714285714</ele><time>2026-04-12T08:20:30.993Z</time></trkpt><trkpt lat="45.37543635796893" lon="10.533127142694463"><ele>126.57142857142858</ele><time>2026-04-12T08:20:34.993Z</time></trkpt><trkpt lat="45.37542583032598" lon="10.53323437642426"><ele>127.0</ele><time>2026-04-12T08:20:38.993Z</time></trkpt><trkpt lat="45.37543162034784" lon="10.533353353187678"><ele>127.71428571428572</ele><time>2026-04-12T08:20:42.992Z</time></trkpt><trkpt lat="45.375443215078725" lon="10.533448033683685"><ele>128.42857142857142</ele><time>2026-04-12T08:20:45.992Z</time></trkpt><trkpt lat="45.37544251475247" lon="10.533560844616234"><ele>129.14285714285714</ele><time>2026-04-12T08:20:49.992Z</time></trkpt><trkpt lat="45.37544144003208" lon="10.533670073692878"><ele>129.85714285714286</ele><time>2026-04-12T08:20:53.992Z</time></trkpt><trkpt lat="45.37544464908972" lon="10.533766509606348"><ele>130.57142857142858</ele><time>2026-04-12T08:20:56.992Z</time></trkpt><trkpt lat="45.375448202775914" lon="10.533862951192974"><ele>131.28571428571428</ele><time>2026-04-12T08:20:59.992Z</time></trkpt><trkpt lat="45.37544573104342" lon="10.533956291390762"><ele>132.0</ele><time>2026-04-12T08:21:02.992Z</time></trkpt><trkpt lat="45.375435412190505" lon="10.534062075336825"><ele>132.42857142857142</ele><time>2026-04-12T08:21:06.992Z</time></trkpt><trkpt lat="45.37540976032158" lon="10.534152092764192"><ele>132.85714285714286</ele><time>2026-04-12T08:21:09.992Z</time></trkpt><trkpt lat="45.37534612094814" lon="10.534190483142243"><ele>133.28571428571428</ele><time>2026-04-12T08:21:12.992Z</time></trkpt><trkpt lat="45.375278505494094" lon="10.534186454236531"><ele>133.71428571428572</ele><time>2026-04-12T08:21:16.992Z</time></trkpt><trkpt lat="45.37520392000542" lon="10.534211615275332"><ele>134.14285714285714</ele><time>2026-04-12T08:21:20.992Z</time></trkpt><trkpt lat="45.3751415031762" lon="10.534229292024866"><ele>134.57142857142856</ele><time>2026-04-12T08:21:24.992Z</time></trkpt><trkpt lat="45.37506331719789" lon="10.534237115947922"><ele>135.0</ele><time>2026-04-12T08:21:28.991Z</time></trkpt><trkpt lat="45.37499951627184" lon="10.534232993138268"><ele>135.0</ele><time>2026-04-12T08:21:31.991Z</time></trkpt><trkpt lat="45.37493325197203" lon="10.534225789795213"><ele>135.0</ele><time>2026-04-12T08:21:34.991Z</time></trkpt><trkpt lat="45.37486611811462" lon="10.534225394719053"><ele>135.0</ele><time>2026-04-12T08:21:37.991Z</time></trkpt><trkpt lat="45.374800702427585" lon="10.534226680001241"><ele>135.0</ele><time>2026-04-12T08:21:40.991Z</time></trkpt><trkpt lat="45.37473957285431" lon="10.534267115843743"><ele>135.0</ele><time>2026-04-12T08:21:43.991Z</time></trkpt><trkpt lat="45.374693511032724" lon="10.534337087324847"><ele>135.0</ele><time>2026-04-12T08:21:46.991Z</time></trkpt><trkpt lat="45.37465647615664" lon="10.534419501611296"><ele>135.0</ele><time>2026-04-12T08:21:51.991Z</time></trkpt><trkpt lat="45.374632785929315" lon="10.534520442636465"><ele>136.66666666666666</ele><time>2026-04-12T08:21:55.991Z</time></trkpt><trkpt lat="45.37462311917108" lon="10.534649439748744"><ele>138.33333333333334</ele><time>2026-04-12T08:21:59.991Z</time></trkpt><trkpt lat="45.37461267680538" lon="10.534758830544536"><ele>140.0</ele><time>2026-04-12T08:22:02.991Z</time></trkpt><trkpt lat="45.3746064477977" lon="10.534872774459197"><ele>141.66666666666669</ele><time>2026-04-12T08:22:05.99Z</time></trkpt><trkpt lat="45.374581157400115" lon="10.534979867120159"><ele>143.33333333333334</ele><time>2026-04-12T08:22:08.99Z</time></trkpt><trkpt lat="45.37455697592032" lon="10.535081279452317"><ele>145.0</ele><time>2026-04-12T08:22:11.99Z</time></trkpt><trkpt lat="45.37452566898598" lon="10.535169412629436"><ele>145.0</ele><time>2026-04-12T08:22:14.99Z</time></trkpt><trkpt lat="45.374496469231495" lon="10.535255615682017"><ele>145.0</ele><time>2026-04-12T08:22:17.99Z</time></trkpt><trkpt lat="45.374475793079526" lon="10.535347761339585"><ele>145.0</ele><time>2026-04-12T08:22:20.99Z</time></trkpt><trkpt lat="45.37446186193205" lon="10.535443441180906"><ele>145.0</ele><time>2026-04-12T08:22:23.99Z</time></trkpt><trkpt lat="45.374477106122576" lon="10.535544948009054"><ele>145.0</ele><time>2026-04-12T08:22:26.99Z</time></trkpt><trkpt lat="45.37446952611398" lon="10.535661816315493"><ele>145.0</ele><time>2026-04-12T08:22:29.99Z</time></trkpt><trkpt lat="45.37444588374009" lon="10.535764449722436"><ele>145.0</ele><time>2026-04-12T08:22:32.99Z</time></trkpt><trkpt lat="45.374432445045485" lon="10.535872624280628"><ele>144.71428571428572</ele><time>2026-04-12T08:22:35.99Z</time></trkpt><trkpt lat="45.37441992575929" lon="10.53596584298171"><ele>144.42857142857144</ele><time>2026-04-12T08:22:38.99Z</time></trkpt><trkpt lat="45.3743999386955" lon="10.536064595585673"><ele>144.14285714285714</ele><time>2026-04-12T08:22:41.99Z</time></trkpt><trkpt lat="45.37438444724942" lon="10.536170834665498"><ele>143.85714285714286</ele><time>2026-04-12T08:22:44.989Z</time></trkpt><trkpt lat="45.37436677320609" lon="10.536264486261585"><ele>143.57142857142856</ele><time>2026-04-12T08:22:47.989Z</time></trkpt><trkpt lat="45.37433403187631" lon="10.536359186420146"><ele>143.28571428571428</ele><time>2026-04-12T08:22:50.989Z</time></trkpt><trkpt lat="45.374334243552454" lon="10.53646869959848"><ele>143.0</ele><time>2026-04-12T08:22:53.989Z</time></trkpt><trkpt lat="45.3743214316434" lon="10.536566721241211"><ele>141.5</ele><time>2026-04-12T08:22:56.989Z</time></trkpt><trkpt lat="45.37430584719779" lon="10.536684722999032"><ele>140.0</ele><time>2026-04-12T08:22:59.989Z</time></trkpt><trkpt lat="45.37429366072607" lon="10.536787211194984"><ele>138.5</ele><time>2026-04-12T08:23:02.989Z</time></trkpt><trkpt lat="45.37429562888929" lon="10.536909566213964"><ele>137.0</ele><time>2026-04-12T08:23:05.989Z</time></trkpt><trkpt lat="45.37430780388879" lon="10.537013838271518"><ele>135.5</ele><time>2026-04-12T08:23:07.989Z</time></trkpt><trkpt lat="45.37431074302161" lon="10.537120350827259"><ele>134.0</ele><time>2026-04-12T08:23:09.989Z</time></trkpt><trkpt lat="45.374315889543304" lon="10.537226488360298"><ele>133.16666666666666</ele><time>2026-04-12T08:23:11.989Z</time></trkpt><trkpt lat="45.374319524541384" lon="10.53735652943397"><ele>132.33333333333331</ele><time>2026-04-12T08:23:14.989Z</time></trkpt><trkpt lat="45.37431983267936" lon="10.53746979532281"><ele>131.5</ele><time>2026-04-12T08:23:17.989Z</time></trkpt><trkpt lat="45.37431927650287" lon="10.537571095720184"><ele>130.66666666666666</ele><time>2026-04-12T08:23:20.989Z</time></trkpt><trkpt lat="45.37431503852602" lon="10.537691810739503"><ele>129.83333333333334</ele><time>2026-04-12T08:23:23.989Z</time></trkpt><trkpt lat="45.37429951419681" lon="10.537803566328993"><ele>129.0</ele><time>2026-04-12T08:23:26.988Z</time></trkpt><trkpt lat="45.374300820207715" lon="10.537926828955994"><ele>129.0</ele><time>2026-04-12T08:23:29.988Z</time></trkpt><trkpt lat="45.37429021024784" lon="10.538036082817538"><ele>129.0</ele><time>2026-04-12T08:23:32.988Z</time></trkpt><trkpt lat="45.37427201989456" lon="10.538159134520397"><ele>129.0</ele><time>2026-04-12T08:23:35.988Z</time></trkpt><trkpt lat="45.37425110219965" lon="10.53826751191241"><ele>129.0</ele><time>2026-04-12T08:23:38.988Z</time></trkpt><trkpt lat="45.37423046872867" lon="10.538380395071302"><ele>129.0</ele><time>2026-04-12T08:23:41.988Z</time></trkpt><trkpt lat="45.37421737893358" lon="10.538475845725447"><ele>129.0</ele><time>2026-04-12T08:23:43.988Z</time></trkpt><trkpt lat="45.37418918945254" lon="10.53859321625212"><ele>129.0</ele><time>2026-04-12T08:23:46.988Z</time></trkpt><trkpt lat="45.37417199290881" lon="10.538706958693712"><ele>129.0</ele><time>2026-04-12T08:23:49.988Z</time></trkpt><trkpt lat="45.37414246175177" lon="10.538825608497936"><ele>129.0</ele><time>2026-04-12T08:23:52.988Z</time></trkpt><trkpt lat="45.37412495824698" lon="10.538941874928602"><ele>129.0</ele><time>2026-04-12T08:23:55.988Z</time></trkpt><trkpt lat="45.37411448142144" lon="10.539062906523263"><ele>129.0</ele><time>2026-04-12T08:23:58.988Z</time></trkpt><trkpt lat="45.374102743601405" lon="10.539177693841372"><ele>129.0</ele><time>2026-04-12T08:24:01.988Z</time></trkpt><trkpt lat="45.37409364123028" lon="10.539299042677937"><ele>129.42857142857142</ele><time>2026-04-12T08:24:04.988Z</time></trkpt><trkpt lat="45.3740876417815" lon="10.539406568814979"><ele>129.85714285714286</ele><time>2026-04-12T08:24:07.987Z</time></trkpt><trkpt lat="45.37408626691311" lon="10.539517906066434"><ele>130.28571428571428</ele><time>2026-04-12T08:24:10.987Z</time></trkpt><trkpt lat="45.374092128163895" lon="10.539628780539816"><ele>130.71428571428572</ele><time>2026-04-12T08:24:13.987Z</time></trkpt><trkpt lat="45.37408602809553" lon="10.539723436660493"><ele>131.14285714285714</ele><time>2026-04-12T08:24:16.987Z</time></trkpt><trkpt lat="45.37406426043206" lon="10.539815078273186"><ele>131.57142857142856</ele><time>2026-04-12T08:24:20.987Z</time></trkpt><trkpt lat="45.37405485759308" lon="10.539928015941275"><ele>132.0</ele><time>2026-04-12T08:24:24.987Z</time></trkpt><trkpt lat="45.374048050040486" lon="10.540031248448997"><ele>133.14285714285714</ele><time>2026-04-12T08:24:28.987Z</time></trkpt><trkpt lat="45.37403797164297" lon="10.540127112492952"><ele>134.28571428571428</ele><time>2026-04-12T08:24:32.987Z</time></trkpt><trkpt lat="45.37404830383866" lon="10.540228299691146"><ele>135.42857142857144</ele><time>2026-04-12T08:24:36.987Z</time></trkpt><trkpt lat="45.374041733586644" lon="10.540322270423193"><ele>136.57142857142856</ele><time>2026-04-12T08:24:40.987Z</time></trkpt><trkpt lat="45.37403009524161" lon="10.54041095509016"><ele>137.71428571428572</ele><time>2026-04-12T08:24:44.987Z</time></trkpt><trkpt lat="45.37397924520393" lon="10.540469062914866"><ele>138.85714285714286</ele><time>2026-04-12T08:24:48.986Z</time></trkpt><trkpt lat="45.373915714122965" lon="10.540502518157478"><ele>140.0</ele><time>2026-04-12T08:24:51.986Z</time></trkpt><trkpt lat="45.37387759147219" lon="10.540605394814927"><ele>140.42857142857142</ele><time>2026-04-12T08:24:55.986Z</time></trkpt><trkpt lat="45.373862002450984" lon="10.540697317495033"><ele>140.85714285714286</ele><time>2026-04-12T08:24:58.986Z</time></trkpt><trkpt lat="45.37384006552377" lon="10.540782981198378"><ele>141.28571428571428</ele><time>2026-04-12T08:25:01.986Z</time></trkpt><trkpt lat="45.373833427871695" lon="10.540880076972918"><ele>141.71428571428572</ele><time>2026-04-12T08:25:04.986Z</time></trkpt><trkpt lat="45.373838744589705" lon="10.540975629705475"><ele>142.14285714285714</ele><time>2026-04-12T08:25:07.986Z</time></trkpt><trkpt lat="45.37380088624271" lon="10.541054190701082"><ele>142.57142857142856</ele><time>2026-04-12T08:25:10.986Z</time></trkpt><trkpt lat="45.373761158084676" lon="10.541150950632957"><ele>143.0</ele><time>2026-04-12T08:25:14.986Z</time></trkpt><trkpt lat="45.37376143602895" lon="10.541245883773215"><ele>142.7142857142857</ele><time>2026-04-12T08:25:17.986Z</time></trkpt><trkpt lat="45.3737728274761" lon="10.541334562389906"><ele>142.42857142857142</ele><time>2026-04-12T08:25:20.986Z</time></trkpt><trkpt lat="45.373782121070874" lon="10.54145133751592"><ele>142.14285714285714</ele><time>2026-04-12T08:25:24.986Z</time></trkpt><trkpt lat="45.373800127880905" lon="10.54154541003743"><ele>141.85714285714283</ele><time>2026-04-12T08:25:27.985Z</time></trkpt><trkpt lat="45.37379849557115" lon="10.541643147014602"><ele>141.57142857142856</ele><time>2026-04-12T08:25:30.985Z</time></trkpt><trkpt lat="45.37382019565831" lon="10.541738595914643"><ele>141.28571428571428</ele><time>2026-04-12T08:25:33.985Z</time></trkpt><trkpt lat="45.37385317084446" lon="10.541837295614208"><ele>141.0</ele><time>2026-04-12T08:25:36.985Z</time></trkpt><trkpt lat="45.37387950460076" lon="10.541936333198821"><ele>141.0</ele><time>2026-04-12T08:25:39.985Z</time></trkpt><trkpt lat="45.37389730788976" lon="10.542041686513057"><ele>141.0</ele><time>2026-04-12T08:25:42.985Z</time></trkpt><trkpt lat="45.37391545957751" lon="10.542144006664913"><ele>141.0</ele><time>2026-04-12T08:25:45.985Z</time></trkpt><trkpt lat="45.37394073714671" lon="10.542256603798487"><ele>141.0</ele><time>2026-04-12T08:25:48.985Z</time></trkpt><trkpt lat="45.373966585495424" lon="10.542372370675317"><ele>141.0</ele><time>2026-04-12T08:25:51.985Z</time></trkpt><trkpt lat="45.37398755740277" lon="10.542476021998603"><ele>141.0</ele><time>2026-04-12T08:25:54.985Z</time></trkpt><trkpt lat="45.37400319291498" lon="10.542583512079055"><ele>140.42857142857144</ele><time>2026-04-12T08:25:58.985Z</time></trkpt><trkpt lat="45.373967906004175" lon="10.542670873031511"><ele>139.85714285714286</ele><time>2026-04-12T08:26:02.985Z</time></trkpt><trkpt lat="45.37392937525917" lon="10.542751413941613"><ele>139.28571428571428</ele><time>2026-04-12T08:26:06.984Z</time></trkpt><trkpt lat="45.373861288086886" lon="10.542802055263255"><ele>138.71428571428572</ele><time>2026-04-12T08:26:10.984Z</time></trkpt><trkpt lat="45.373801788470765" lon="10.542839940911922"><ele>138.14285714285714</ele><time>2026-04-12T08:26:14.984Z</time></trkpt><trkpt lat="45.37373220895182" lon="10.542868093676537"><ele>137.57142857142858</ele><time>2026-04-12T08:26:18.984Z</time></trkpt><trkpt lat="45.37365731224891" lon="10.54288055653895"><ele>137.0</ele><time>2026-04-12T08:26:22.984Z</time></trkpt><trkpt lat="45.37358576630118" lon="10.54285888371693"><ele>136.5</ele><time>2026-04-12T08:26:27.984Z</time></trkpt><trkpt lat="45.373540398652175" lon="10.542766411096915"><ele>136.0</ele><time>2026-04-12T08:26:31.984Z</time></trkpt><trkpt lat="45.373490819910536" lon="10.542708323269242"><ele>135.5</ele><time>2026-04-12T08:26:34.984Z</time></trkpt><trkpt lat="45.37341517228532" lon="10.542655188766357"><ele>135.0</ele><time>2026-04-12T08:26:38.984Z</time></trkpt><trkpt lat="45.37334891669222" lon="10.542613104016322"><ele>134.5</ele><time>2026-04-12T08:26:41.984Z</time></trkpt><trkpt lat="45.37328065860211" lon="10.542593847280562"><ele>134.0</ele><time>2026-04-12T08:26:44.984Z</time></trkpt><trkpt lat="45.37320066143926" lon="10.54256747959583"><ele>134.0</ele><time>2026-04-12T08:26:48.983Z</time></trkpt><trkpt lat="45.3731319593823" lon="10.542546135061462"><ele>134.0</ele><time>2026-04-12T08:26:51.983Z</time></trkpt><trkpt lat="45.373056751140346" lon="10.542528669976363"><ele>134.0</ele><time>2026-04-12T08:26:54.983Z</time></trkpt><trkpt lat="45.37298089908446" lon="10.542513056131083"><ele>134.0</ele><time>2026-04-12T08:26:57.983Z</time></trkpt><trkpt lat="45.37289941674083" lon="10.54249743922883"><ele>134.0</ele><time>2026-04-12T08:27:00.983Z</time></trkpt><trkpt lat="45.37283017846012" lon="10.542469651662483"><ele>134.0</ele><time>2026-04-12T08:27:03.983Z</time></trkpt><trkpt lat="45.37275476751135" lon="10.542451095258102"><ele>133.33333333333331</ele><time>2026-04-12T08:27:06.983Z</time></trkpt><trkpt lat="45.37268478345882" lon="10.542423318660186"><ele>132.66666666666666</ele><time>2026-04-12T08:27:09.983Z</time></trkpt><trkpt lat="45.37261126628646" lon="10.542411067864025"><ele>132.0</ele><time>2026-04-12T08:27:12.983Z</time></trkpt><trkpt lat="45.37253733367094" lon="10.542397509827017"><ele>131.33333333333334</ele><time>2026-04-12T08:27:15.983Z</time></trkpt><trkpt lat="45.37244812525186" lon="10.542406925218868"><ele>130.66666666666669</ele><time>2026-04-12T08:27:18.983Z</time></trkpt><trkpt lat="45.37236471279011" lon="10.542413539705445"><ele>130.0</ele><time>2026-04-12T08:27:21.983Z</time></trkpt><trkpt lat="45.37230750529715" lon="10.542452296149824"><ele>130.00000000000003</ele><time>2026-04-12T08:27:23.983Z</time></trkpt><trkpt lat="45.37224374937856" lon="10.542521491506152"><ele>130.0</ele><time>2026-04-12T08:27:25.982Z</time></trkpt><trkpt lat="45.37219494973939" lon="10.54259281758383"><ele>130.0</ele><time>2026-04-12T08:27:27.982Z</time></trkpt><trkpt lat="45.372139946688726" lon="10.542654763751456"><ele>130.0</ele><time>2026-04-12T08:27:29.982Z</time></trkpt><trkpt lat="45.3720655539694" lon="10.542678482606949"><ele>130.0</ele><time>2026-04-12T08:27:32.982Z</time></trkpt><trkpt lat="45.372002843133444" lon="10.542638286656361"><ele>130.00000000000003</ele><time>2026-04-12T08:27:35.982Z</time></trkpt><trkpt lat="45.37192319784231" lon="10.542620578628755"><ele>130.0</ele><time>2026-04-12T08:27:38.982Z</time></trkpt><trkpt lat="45.37183552148763" lon="10.542597612628574"><ele>129.5</ele><time>2026-04-12T08:27:41.982Z</time></trkpt><trkpt lat="45.3717517337637" lon="10.542574302963509"><ele>129.0</ele><time>2026-04-12T08:27:44.982Z</time></trkpt><trkpt lat="45.371666780700465" lon="10.542562641720282"><ele>128.5</ele><time>2026-04-12T08:27:47.982Z</time></trkpt><trkpt lat="45.37158401656208" lon="10.542532609572168"><ele>128.0</ele><time>2026-04-12T08:27:50.982Z</time></trkpt><trkpt lat="45.371489828909645" lon="10.542526363885043"><ele>127.50000000000001</ele><time>2026-04-12T08:27:53.982Z</time></trkpt><trkpt lat="45.37142090851936" lon="10.542475187547955"><ele>127.0</ele><time>2026-04-12T08:27:56.982Z</time></trkpt><trkpt lat="45.37136136326459" lon="10.542424736431132"><ele>128.0</ele><time>2026-04-12T08:27:59.982Z</time></trkpt><trkpt lat="45.37131795315653" lon="10.542319921594366"><ele>129.0</ele><time>2026-04-12T08:28:03.982Z</time></trkpt><trkpt lat="45.371310822914715" lon="10.542229191852957"><ele>130.0</ele><time>2026-04-12T08:28:06.981Z</time></trkpt><trkpt lat="45.371266557406706" lon="10.542137922986994"><ele>131.0</ele><time>2026-04-12T08:28:10.981Z</time></trkpt><trkpt lat="45.37119075927302" lon="10.542078239669657"><ele>132.0</ele><time>2026-04-12T08:28:13.981Z</time></trkpt><trkpt lat="45.37112514401468" lon="10.542033009452938"><ele>133.0</ele><time>2026-04-12T08:28:16.981Z</time></trkpt><trkpt lat="45.371053958390235" lon="10.542002356050737"><ele>133.33333333333334</ele><time>2026-04-12T08:28:19.981Z</time></trkpt><trkpt lat="45.370984060644155" lon="10.541961131880315"><ele>133.66666666666669</ele><time>2026-04-12T08:28:22.981Z</time></trkpt><trkpt lat="45.37090196585047" lon="10.541929171988171"><ele>134.0</ele><time>2026-04-12T08:28:25.981Z</time></trkpt><trkpt lat="45.37082664369112" lon="10.541893814303293"><ele>134.33333333333334</ele><time>2026-04-12T08:28:28.981Z</time></trkpt><trkpt lat="45.3707617580061" lon="10.541845002287333"><ele>134.66666666666666</ele><time>2026-04-12T08:28:31.981Z</time></trkpt><trkpt lat="45.37069416292067" lon="10.54178686928482"><ele>135.0</ele><time>2026-04-12T08:28:34.981Z</time></trkpt><trkpt lat="45.37064006150871" lon="10.541716271403493"><ele>135.0</ele><time>2026-04-12T08:28:37.981Z</time></trkpt><trkpt lat="45.37058911426229" lon="10.541630461907623"><ele>135.0</ele><time>2026-04-12T08:28:40.981Z</time></trkpt><trkpt lat="45.37057038434346" lon="10.541521601690228"><ele>135.0</ele><time>2026-04-12T08:28:43.981Z</time></trkpt><trkpt lat="45.370575933769345" lon="10.541429667103317"><ele>135.0</ele><time>2026-04-12T08:28:46.98Z</time></trkpt><trkpt lat="45.37057552958589" lon="10.541326649808635"><ele>135.0</ele><time>2026-04-12T08:28:49.98Z</time></trkpt><trkpt lat="45.37057981806243" lon="10.541228844696434"><ele>135.0</ele><time>2026-04-12T08:28:52.98Z</time></trkpt><trkpt lat="45.370582505213406" lon="10.541118105844598"><ele>135.0</ele><time>2026-04-12T08:28:55.98Z</time></trkpt><trkpt lat="45.37058135880299" lon="10.541021227935246"><ele>135.42857142857142</ele><time>2026-04-12T08:28:58.98Z</time></trkpt><trkpt lat="45.370563928853976" lon="10.540928906194909"><ele>135.85714285714283</ele><time>2026-04-12T08:29:01.98Z</time></trkpt><trkpt lat="45.37051247357011" lon="10.54087002498529"><ele>136.28571428571428</ele><time>2026-04-12T08:29:04.98Z</time></trkpt><trkpt lat="45.370443308353" lon="10.540835848570449"><ele>136.71428571428572</ele><time>2026-04-12T08:29:07.98Z</time></trkpt><trkpt lat="45.370379551486515" lon="10.54080144542702"><ele>137.14285714285717</ele><time>2026-04-12T08:29:10.98Z</time></trkpt><trkpt lat="45.37031374095726" lon="10.540760390751132"><ele>137.57142857142858</ele><time>2026-04-12T08:29:13.98Z</time></trkpt><trkpt lat="45.37024662609286" lon="10.540726083494851"><ele>138.0</ele><time>2026-04-12T08:29:16.98Z</time></trkpt><trkpt lat="45.370177375522836" lon="10.540696335815072"><ele>138.0</ele><time>2026-04-12T08:29:19.98Z</time></trkpt><trkpt lat="45.37010161194045" lon="10.540648484503569"><ele>138.0</ele><time>2026-04-12T08:29:23.98Z</time></trkpt><trkpt lat="45.37003217469221" lon="10.54064327036744"><ele>138.0</ele><time>2026-04-12T08:29:26.979Z</time></trkpt><trkpt lat="45.36996319816667" lon="10.54061226812905"><ele>138.0</ele><time>2026-04-12T08:29:30.979Z</time></trkpt><trkpt lat="45.36991477973213" lon="10.54055138666386"><ele>138.0</ele><time>2026-04-12T08:29:33.979Z</time></trkpt><trkpt lat="45.369835057928285" lon="10.54050220104306"><ele>138.0</ele><time>2026-04-12T08:29:37.979Z</time></trkpt><trkpt lat="45.36976759784886" lon="10.540455231804703"><ele>138.0</ele><time>2026-04-12T08:29:40.979Z</time></trkpt><trkpt lat="45.3697091376704" lon="10.540419486034585"><ele>138.0</ele><time>2026-04-12T08:29:43.979Z</time></trkpt><trkpt lat="45.36965455015648" lon="10.540330839146362"><ele>138.0</ele><time>2026-04-12T08:29:47.979Z</time></trkpt><trkpt lat="45.36958386233892" lon="10.540315312458729"><ele>138.0</ele><time>2026-04-12T08:29:49.979Z</time></trkpt><trkpt lat="45.36951170866336" lon="10.54026434163884"><ele>138.0</ele><time>2026-04-12T08:29:52.979Z</time></trkpt><trkpt lat="45.36943046632738" lon="10.54027114848434"><ele>138.0</ele><time>2026-04-12T08:29:55.979Z</time></trkpt><trkpt lat="45.36934124999602" lon="10.540272086231758"><ele>135.0</ele><time>2026-04-12T08:29:58.979Z</time></trkpt><trkpt lat="45.369262426188705" lon="10.540242071174987"><ele>132.0</ele><time>2026-04-12T08:30:01.979Z</time></trkpt><trkpt lat="45.369170336068834" lon="10.540225721198633"><ele>129.0</ele><time>2026-04-12T08:30:04.978Z</time></trkpt><trkpt lat="45.36910591860017" lon="10.540216924320017"><ele>126.0</ele><time>2026-04-12T08:30:06.978Z</time></trkpt><trkpt lat="45.36904196536314" lon="10.540215357152215"><ele>123.0</ele><time>2026-04-12T08:30:08.978Z</time></trkpt><trkpt lat="45.368977161522615" lon="10.540198720493931"><ele>120.0</ele><time>2026-04-12T08:30:11.978Z</time></trkpt><trkpt lat="45.368893052224806" lon="10.540179052945108"><ele>118.85714285714286</ele><time>2026-04-12T08:30:14.978Z</time></trkpt><trkpt lat="45.36882886765091" lon="10.540163810528604"><ele>117.71428571428571</ele><time>2026-04-12T08:30:16.978Z</time></trkpt><trkpt lat="45.36875119990001" lon="10.540192722213192"><ele>116.57142857142857</ele><time>2026-04-12T08:30:19.978Z</time></trkpt><trkpt lat="45.368719618509786" lon="10.540281643041906"><ele>115.42857142857143</ele><time>2026-04-12T08:30:22.978Z</time></trkpt><trkpt lat="45.36869924451671" lon="10.540383039040591"><ele>114.28571428571428</ele><time>2026-04-12T08:30:26.978Z</time></trkpt><trkpt lat="45.36868121416569" lon="10.540487528000844"><ele>113.14285714285714</ele><time>2026-04-12T08:30:30.978Z</time></trkpt><trkpt lat="45.3686679698294" lon="10.540599358906178"><ele>112.0</ele><time>2026-04-12T08:30:34.978Z</time></trkpt><trkpt lat="45.368652024445325" lon="10.540699060823085"><ele>112.0</ele><time>2026-04-12T08:30:38.978Z</time></trkpt><trkpt lat="45.36865370454462" lon="10.540814311823231"><ele>112.0</ele><time>2026-04-12T08:30:42.978Z</time></trkpt><trkpt lat="45.36865753966704" lon="10.540911918566998"><ele>112.0</ele><time>2026-04-12T08:30:45.977Z</time></trkpt><trkpt lat="45.368658926499286" lon="10.541010808491595"><ele>112.0</ele><time>2026-04-12T08:30:48.977Z</time></trkpt><trkpt lat="45.368657768085306" lon="10.541115103397548"><ele>112.0</ele><time>2026-04-12T08:30:51.977Z</time></trkpt><trkpt lat="45.36865594902918" lon="10.541221531844956"><ele>112.0</ele><time>2026-04-12T08:30:54.977Z</time></trkpt><trkpt lat="45.36867093490281" lon="10.541318375082982"><ele>112.0</ele><time>2026-04-12T08:30:57.977Z</time></trkpt><trkpt lat="45.368689692011074" lon="10.54142729364587"><ele>112.0</ele><time>2026-04-12T08:31:00.977Z</time></trkpt><trkpt lat="45.368720878046425" lon="10.541510018773758"><ele>112.0</ele><time>2026-04-12T08:31:03.977Z</time></trkpt><trkpt lat="45.368739841268884" lon="10.541608891754217"><ele>112.0</ele><time>2026-04-12T08:31:06.977Z</time></trkpt><trkpt lat="45.368717734086765" lon="10.541694969798055"><ele>112.0</ele><time>2026-04-12T08:31:09.977Z</time></trkpt><trkpt lat="45.36868742362096" lon="10.54178344725342"><ele>112.0</ele><time>2026-04-12T08:31:12.977Z</time></trkpt><trkpt lat="45.3686327344062" lon="10.541873105661052"><ele>112.0</ele><time>2026-04-12T08:31:16.977Z</time></trkpt><trkpt lat="45.36859027757016" lon="10.541954928232993"><ele>112.0</ele><time>2026-04-12T08:31:19.977Z</time></trkpt><trkpt lat="45.36855992368393" lon="10.542066053182854"><ele>112.00000000000001</ele><time>2026-04-12T08:31:22.977Z</time></trkpt><trkpt lat="45.36854545643779" lon="10.542198237442033"><ele>112.0</ele><time>2026-04-12T08:31:25.976Z</time></trkpt><trkpt lat="45.368528272066605" lon="10.542315185427022"><ele>112.0</ele><time>2026-04-12T08:31:28.976Z</time></trkpt><trkpt lat="45.36855654088674" lon="10.542404742869772"><ele>112.0</ele><time>2026-04-12T08:31:30.976Z</time></trkpt><trkpt lat="45.36857308754678" lon="10.542492374580188"><ele>112.00000000000001</ele><time>2026-04-12T08:31:32.976Z</time></trkpt><trkpt lat="45.3685889350973" lon="10.54260820385709"><ele>112.0</ele><time>2026-04-12T08:31:35.976Z</time></trkpt><trkpt lat="45.3686025247771" lon="10.542728279805004"><ele>112.00000000000001</ele><time>2026-04-12T08:31:38.976Z</time></trkpt><trkpt lat="45.36860331239473" lon="10.542845918431931"><ele>112.0</ele><time>2026-04-12T08:31:41.976Z</time></trkpt><trkpt lat="45.368618492262634" lon="10.542968958158143"><ele>112.0</ele><time>2026-04-12T08:31:44.976Z</time></trkpt><trkpt lat="45.36863707327225" lon="10.543092130310066"><ele>112.0</ele><time>2026-04-12T08:31:47.976Z</time></trkpt><trkpt lat="45.368654129146705" lon="10.54319788558103"><ele>112.00000000000001</ele><time>2026-04-12T08:31:50.976Z</time></trkpt><trkpt lat="45.36863667498191" lon="10.543301441639764"><ele>112.0</ele><time>2026-04-12T08:31:53.976Z</time></trkpt><trkpt lat="45.368642060527556" lon="10.543402921066912"><ele>112.00000000000001</ele><time>2026-04-12T08:31:56.976Z</time></trkpt><trkpt lat="45.3686551496716" lon="10.543509224280712"><ele>112.0</ele><time>2026-04-12T08:31:59.976Z</time></trkpt><trkpt lat="45.36868303965965" lon="10.54361687125556"><ele>112.0</ele><time>2026-04-12T08:32:02.976Z</time></trkpt><trkpt lat="45.368728401895574" lon="10.543738287593587"><ele>112.0</ele><time>2026-04-12T08:32:05.975Z</time></trkpt><trkpt lat="45.36874721595332" lon="10.543845579868151"><ele>112.00000000000001</ele><time>2026-04-12T08:32:08.975Z</time></trkpt><trkpt lat="45.368777728058674" lon="10.543952476747203"><ele>112.0</ele><time>2026-04-12T08:32:11.975Z</time></trkpt><trkpt lat="45.368806247426285" lon="10.544061180916364"><ele>111.83333333333334</ele><time>2026-04-12T08:32:14.975Z</time></trkpt><trkpt lat="45.3688412732706" lon="10.544167666960732"><ele>111.66666666666667</ele><time>2026-04-12T08:32:17.975Z</time></trkpt><trkpt lat="45.36888489500795" lon="10.544266301192069"><ele>111.5</ele><time>2026-04-12T08:32:20.975Z</time></trkpt><trkpt lat="45.36891360913299" lon="10.544362254007435"><ele>111.33333333333334</ele><time>2026-04-12T08:32:23.975Z</time></trkpt><trkpt lat="45.368950229622314" lon="10.544463666168292"><ele>111.16666666666667</ele><time>2026-04-12T08:32:26.975Z</time></trkpt><trkpt lat="45.368977135498106" lon="10.544568943489034"><ele>111.0</ele><time>2026-04-12T08:32:29.975Z</time></trkpt><trkpt lat="45.36901474760047" lon="10.544643079851415"><ele>112.16666666666667</ele><time>2026-04-12T08:32:31.975Z</time></trkpt><trkpt lat="45.36905898547444" lon="10.544707950777218"><ele>113.33333333333334</ele><time>2026-04-12T08:32:33.975Z</time></trkpt><trkpt lat="45.36911442183651" lon="10.544799794210936"><ele>114.5</ele><time>2026-04-12T08:32:36.975Z</time></trkpt><trkpt lat="45.36915584605054" lon="10.544891233656557"><ele>115.66666666666667</ele><time>2026-04-12T08:32:39.975Z</time></trkpt><trkpt lat="45.36920836873374" lon="10.544987630848992"><ele>116.83333333333334</ele><time>2026-04-12T08:32:42.975Z</time></trkpt><trkpt lat="45.36926505414227" lon="10.545065595206163"><ele>118.0</ele><time>2026-04-12T08:32:45.974Z</time></trkpt><trkpt lat="45.369315614149954" lon="10.545152624079073"><ele>118.00000000000001</ele><time>2026-04-12T08:32:48.975Z</time></trkpt><trkpt lat="45.36934291949974" lon="10.54524313547518"><ele>118.0</ele><time>2026-04-12T08:32:51.974Z</time></trkpt><trkpt lat="45.369352500891" lon="10.545341316883949"><ele>118.0</ele><time>2026-04-12T08:32:55.974Z</time></trkpt><trkpt lat="45.369294197859205" lon="10.545414512536842"><ele>118.0</ele><time>2026-04-12T08:33:02.974Z</time></trkpt><trkpt lat="45.36923782096798" lon="10.54550063925123"><ele>118.00000000000001</ele><time>2026-04-12T08:33:05.974Z</time></trkpt><trkpt lat="45.369197775504574" lon="10.545594144432364"><ele>118.0</ele><time>2026-04-12T08:33:08.974Z</time></trkpt><trkpt lat="45.36917456827723" lon="10.545716914058309"><ele>117.66666666666667</ele><time>2026-04-12T08:33:11.974Z</time></trkpt><trkpt lat="45.369140823849115" lon="10.54581915966887"><ele>117.33333333333334</ele><time>2026-04-12T08:33:14.974Z</time></trkpt><trkpt lat="45.36910308838202" lon="10.54591481350792"><ele>117.0</ele><time>2026-04-12T08:33:17.974Z</time></trkpt><trkpt lat="45.36908550442663" lon="10.54601429942423"><ele>116.66666666666666</ele><time>2026-04-12T08:33:20.974Z</time></trkpt><trkpt lat="45.36906975530168" lon="10.546117067920974"><ele>116.33333333333333</ele><time>2026-04-12T08:33:23.973Z</time></trkpt><trkpt lat="45.36903857303013" lon="10.546224432149605"><ele>116.0</ele><time>2026-04-12T08:33:26.973Z</time></trkpt><trkpt lat="45.36901355228547" lon="10.546332519578078"><ele>115.49999999999999</ele><time>2026-04-12T08:33:29.973Z</time></trkpt><trkpt lat="45.368971306337066" lon="10.546412091821939"><ele>115.0</ele><time>2026-04-12T08:33:32.973Z</time></trkpt><trkpt lat="45.36893632852378" lon="10.546510332270124"><ele>114.5</ele><time>2026-04-12T08:33:35.973Z</time></trkpt><trkpt lat="45.36892869824813" lon="10.546603749182573"><ele>114.0</ele><time>2026-04-12T08:33:38.973Z</time></trkpt><trkpt lat="45.368919521156826" lon="10.546702200050785"><ele>113.49999999999999</ele><time>2026-04-12T08:33:41.973Z</time></trkpt><trkpt lat="45.368911119241524" lon="10.546830710235392"><ele>113.0</ele><time>2026-04-12T08:33:44.973Z</time></trkpt><trkpt lat="45.36891160845182" lon="10.54695778307177"><ele>113.16666666666666</ele><time>2026-04-12T08:33:47.973Z</time></trkpt><trkpt lat="45.36891068535055" lon="10.547058069313364"><ele>113.33333333333333</ele><time>2026-04-12T08:33:49.973Z</time></trkpt><trkpt lat="45.3689090458387" lon="10.547190707317863"><ele>113.5</ele><time>2026-04-12T08:33:52.973Z</time></trkpt><trkpt lat="45.3689050198088" lon="10.54730186530164"><ele>113.66666666666666</ele><time>2026-04-12T08:33:55.973Z</time></trkpt><trkpt lat="45.36890112869413" lon="10.547419608770685"><ele>113.83333333333333</ele><time>2026-04-12T08:33:58.973Z</time></trkpt><trkpt lat="45.368895124957966" lon="10.547521212089551"><ele>114.0</ele><time>2026-04-12T08:34:01.973Z</time></trkpt><trkpt lat="45.36887475443631" lon="10.547628134895897"><ele>114.0</ele><time>2026-04-12T08:34:04.972Z</time></trkpt><trkpt lat="45.36887380581922" lon="10.547740289096085"><ele>114.0</ele><time>2026-04-12T08:34:07.972Z</time></trkpt><trkpt lat="45.3689207483471" lon="10.547848713004708"><ele>114.0</ele><time>2026-04-12T08:34:10.972Z</time></trkpt><trkpt lat="45.36897176774898" lon="10.547902398773875"><ele>114.0</ele><time>2026-04-12T08:34:13.972Z</time></trkpt><trkpt lat="45.3690358661459" lon="10.54792531245642"><ele>114.0</ele><time>2026-04-12T08:34:17.972Z</time></trkpt><trkpt lat="45.36911375167402" lon="10.547930258768181"><ele>114.0</ele><time>2026-04-12T08:34:21.972Z</time></trkpt><trkpt lat="45.36919921709357" lon="10.547938584954597"><ele>116.66666666666666</ele><time>2026-04-12T08:34:25.972Z</time></trkpt><trkpt lat="45.36927420486538" lon="10.547947641513602"><ele>119.33333333333333</ele><time>2026-04-12T08:34:29.972Z</time></trkpt><trkpt lat="45.36948661219469" lon="10.547941481471474"><ele>122.0</ele><time>2026-04-12T08:34:38.972Z</time></trkpt><trkpt lat="45.36970462693748" lon="10.547922584645363"><ele>122.66666666666666</ele><time>2026-04-12T08:34:46.971Z</time></trkpt><trkpt lat="45.369783171034264" lon="10.54791393802355"><ele>123.33333333333333</ele><time>2026-04-12T08:34:49.971Z</time></trkpt><trkpt lat="45.36986115998014" lon="10.547923573466107"><ele>124.0</ele><time>2026-04-12T08:34:52.971Z</time></trkpt><trkpt lat="45.369944354849025" lon="10.547947593074486"><ele>124.66666666666666</ele><time>2026-04-12T08:34:55.971Z</time></trkpt><trkpt lat="45.37003201794239" lon="10.54798076375759"><ele>125.33333333333333</ele><time>2026-04-12T08:34:58.971Z</time></trkpt><trkpt lat="45.37011567504679" lon="10.548030003881111"><ele>126.0</ele><time>2026-04-12T08:35:01.971Z</time></trkpt><trkpt lat="45.370205178682696" lon="10.548066662743556"><ele>126.0</ele><time>2026-04-12T08:35:04.971Z</time></trkpt><trkpt lat="45.37029144796164" lon="10.548091689512965"><ele>126.0</ele><time>2026-04-12T08:35:07.971Z</time></trkpt><trkpt lat="45.37050061119865" lon="10.548109888732137"><ele>126.0</ele><time>2026-04-12T08:35:15.971Z</time></trkpt><trkpt lat="45.370566372626065" lon="10.54810622637479"><ele>126.0</ele><time>2026-04-12T08:35:18.971Z</time></trkpt><trkpt lat="45.37064171022558" lon="10.548122154257557"><ele>126.0</ele><time>2026-04-12T08:35:21.971Z</time></trkpt><trkpt lat="45.37071892209562" lon="10.548137377150821"><ele>126.14285714285714</ele><time>2026-04-12T08:35:24.97Z</time></trkpt><trkpt lat="45.37079027748869" lon="10.548156378359424"><ele>126.28571428571428</ele><time>2026-04-12T08:35:27.97Z</time></trkpt><trkpt lat="45.370870986528494" lon="10.548167445502065"><ele>126.42857142857143</ele><time>2026-04-12T08:35:30.998Z</time></trkpt><trkpt lat="45.37094160945444" lon="10.548167252956977"><ele>126.57142857142857</ele><time>2026-04-12T08:35:33.998Z</time></trkpt><trkpt lat="45.37101466483151" lon="10.548169576842595"><ele>126.71428571428571</ele><time>2026-04-12T08:35:36.998Z</time></trkpt><trkpt lat="45.371088976596475" lon="10.54817722720605"><ele>126.85714285714286</ele><time>2026-04-12T08:35:39.997Z</time></trkpt><trkpt lat="45.37116212952247" lon="10.54819360251052"><ele>127.0</ele><time>2026-04-12T08:35:42.997Z</time></trkpt><trkpt lat="45.371358830373985" lon="10.548200159408848"><ele>127.16666666666667</ele><time>2026-04-12T08:35:49.997Z</time></trkpt><trkpt lat="45.37144205041849" lon="10.54818751547514"><ele>127.33333333333334</ele><time>2026-04-12T08:35:52.997Z</time></trkpt><trkpt lat="45.37151662091889" lon="10.548186814403877"><ele>127.5</ele><time>2026-04-12T08:35:55.997Z</time></trkpt><trkpt lat="45.3716007800318" lon="10.548192518416812"><ele>127.66666666666666</ele><time>2026-04-12T08:35:58.997Z</time></trkpt><trkpt lat="45.37167430911526" lon="10.548182495939304"><ele>127.83333333333333</ele><time>2026-04-12T08:36:01.997Z</time></trkpt><trkpt lat="45.371740757172056" lon="10.548189806471353"><ele>128.0</ele><time>2026-04-12T08:36:04.997Z</time></trkpt><trkpt lat="45.3718132904852" lon="10.54819272843498"><ele>128.0</ele><time>2026-04-12T08:36:07.997Z</time></trkpt><trkpt lat="45.371885631641376" lon="10.548175726822615"><ele>127.99999999999999</ele><time>2026-04-12T08:36:10.997Z</time></trkpt><trkpt lat="45.371974538557254" lon="10.548178983517388"><ele>128.0</ele><time>2026-04-12T08:36:13.997Z</time></trkpt><trkpt lat="45.372035688324" lon="10.548215272655835"><ele>128.0</ele><time>2026-04-12T08:36:15.997Z</time></trkpt><trkpt lat="45.37210045343591" lon="10.548277027024497"><ele>127.99999999999999</ele><time>2026-04-12T08:36:18.999Z</time></trkpt><trkpt lat="45.37215396908762" lon="10.548327407612835"><ele>128.0</ele><time>2026-04-12T08:36:22Z</time></trkpt><trkpt lat="45.37221616633434" lon="10.548382349753073"><ele>128.0</ele><time>2026-04-12T08:36:25Z</time></trkpt><trkpt lat="45.37227089694335" lon="10.548437629587813"><ele>129.0</ele><time>2026-04-12T08:36:28Z</time></trkpt><trkpt lat="45.37231836362149" lon="10.548510741049132"><ele>130.0</ele><time>2026-04-12T08:36:31Z</time></trkpt><trkpt lat="45.372383205165356" lon="10.548586380255141"><ele>131.0</ele><time>2026-04-12T08:36:35Z</time></trkpt><trkpt lat="45.372429790041984" lon="10.548682893758569"><ele>132.0</ele><time>2026-04-12T08:36:39Z</time></trkpt><trkpt lat="45.372440063295805" lon="10.54877861252101"><ele>133.0</ele><time>2026-04-12T08:36:42Z</time></trkpt><trkpt lat="45.372442268784816" lon="10.548888398005571"><ele>134.0</ele><time>2026-04-12T08:36:45.999Z</time></trkpt><trkpt lat="45.37244172141496" lon="10.549003060635037"><ele>135.57142857142858</ele><time>2026-04-12T08:36:49.999Z</time></trkpt><trkpt lat="45.37244440119735" lon="10.549096396691086"><ele>137.14285714285714</ele><time>2026-04-12T08:36:52.999Z</time></trkpt><trkpt lat="45.37243672632692" lon="10.549188386798276"><ele>138.71428571428572</ele><time>2026-04-12T08:36:55.999Z</time></trkpt><trkpt lat="45.372492941779434" lon="10.549263805438626"><ele>140.28571428571428</ele><time>2026-04-12T08:36:58.999Z</time></trkpt><trkpt lat="45.372552303143415" lon="10.549321165906791"><ele>141.85714285714286</ele><time>2026-04-12T08:37:01.999Z</time></trkpt><trkpt lat="45.3726046957934" lon="10.549374196510247"><ele>143.42857142857144</ele><time>2026-04-12T08:37:04.999Z</time></trkpt><trkpt lat="45.3726756208208" lon="10.549412498384813"><ele>145.0</ele><time>2026-04-12T08:37:08.999Z</time></trkpt><trkpt lat="45.37274017173198" lon="10.54945066539625"><ele>145.0</ele><time>2026-04-12T08:37:12.999Z</time></trkpt><trkpt lat="45.37271820124741" lon="10.549542498029984"><ele>145.0</ele><time>2026-04-12T08:37:23.998Z</time></trkpt><trkpt lat="45.372814966396504" lon="10.549504546446569"><ele>145.0</ele><time>2026-04-12T08:37:46.998Z</time></trkpt><trkpt lat="45.372823857579476" lon="10.54941011998347"><ele>145.0</ele><time>2026-04-12T08:37:54.998Z</time></trkpt><trkpt lat="45.372832160082815" lon="10.549306428778586"><ele>145.0</ele><time>2026-04-12T08:38:00.998Z</time></trkpt><trkpt lat="45.372868746120766" lon="10.549217856185463"><ele>145.0</ele><time>2026-04-12T08:38:05.997Z</time></trkpt><trkpt lat="45.3729309041265" lon="10.549180148441469"><ele>145.0</ele><time>2026-04-12T08:38:11.997Z</time></trkpt><trkpt lat="45.37298669292959" lon="10.54912864725705"><ele>145.5</ele><time>2026-04-12T08:38:16.997Z</time></trkpt><trkpt lat="45.37304223369332" lon="10.549076831332272"><ele>146.0</ele><time>2026-04-12T08:38:19.997Z</time></trkpt><trkpt lat="45.37310594365387" lon="10.549022836926211"><ele>146.5</ele><time>2026-04-12T08:38:22.999Z</time></trkpt><trkpt lat="45.37312624539116" lon="10.54893285472744"><ele>147.0</ele><time>2026-04-12T08:38:25.999Z</time></trkpt><trkpt lat="45.373148284118" lon="10.548802710086743"><ele>147.5</ele><time>2026-04-12T08:38:28.999Z</time></trkpt><trkpt lat="45.3731785724667" lon="10.548684538543926"><ele>148.0</ele><time>2026-04-12T08:38:31.999Z</time></trkpt><trkpt lat="45.37319930489704" lon="10.548562260846868"><ele>148.0</ele><time>2026-04-12T08:38:34.999Z</time></trkpt><trkpt lat="45.37322828515639" lon="10.54844807396181"><ele>148.0</ele><time>2026-04-12T08:38:37.999Z</time></trkpt><trkpt lat="45.37324793926418" lon="10.548339712558958"><ele>148.0</ele><time>2026-04-12T08:38:40.999Z</time></trkpt><trkpt lat="45.37326418686666" lon="10.54824572872203"><ele>148.0</ele><time>2026-04-12T08:38:43.999Z</time></trkpt><trkpt lat="45.3732819313441" lon="10.548148047806842"><ele>148.0</ele><time>2026-04-12T08:38:46.999Z</time></trkpt><trkpt lat="45.37330245901112" lon="10.548048224666157"><ele>148.0</ele><time>2026-04-12T08:38:49.999Z</time></trkpt><trkpt lat="45.37333248726704" lon="10.54793055361604"><ele>146.5</ele><time>2026-04-12T08:38:53.999Z</time></trkpt><trkpt lat="45.37333773882024" lon="10.547827944350068"><ele>145.0</ele><time>2026-04-12T08:38:56.999Z</time></trkpt><trkpt lat="45.373336163949475" lon="10.54772106984892"><ele>143.5</ele><time>2026-04-12T08:38:59.999Z</time></trkpt><trkpt lat="45.37333346240297" lon="10.547609757642045"><ele>142.0</ele><time>2026-04-12T08:39:02.999Z</time></trkpt><trkpt lat="45.37332739916144" lon="10.547493435200918"><ele>140.5</ele><time>2026-04-12T08:39:05.998Z</time></trkpt><trkpt lat="45.37332305868691" lon="10.547403383252707"><ele>139.0</ele><time>2026-04-12T08:39:07.998Z</time></trkpt><trkpt lat="45.37332585480002" lon="10.547274843507038"><ele>139.0</ele><time>2026-04-12T08:39:10.998Z</time></trkpt><trkpt lat="45.373319756626465" lon="10.547158734208205"><ele>139.0</ele><time>2026-04-12T08:39:13.998Z</time></trkpt><trkpt lat="45.373338740462245" lon="10.547043181832448"><ele>139.0</ele><time>2026-04-12T08:39:16.998Z</time></trkpt><trkpt lat="45.37339423622469" lon="10.546966663026396"><ele>139.0</ele><time>2026-04-12T08:39:19.998Z</time></trkpt><trkpt lat="45.373436116634814" lon="10.546884591718733"><ele>139.0</ele><time>2026-04-12T08:39:22.998Z</time></trkpt><trkpt lat="45.37347434756332" lon="10.54677639366249"><ele>139.0</ele><time>2026-04-12T08:39:25.998Z</time></trkpt><trkpt lat="45.37345469714807" lon="10.546682229264844"><ele>137.5</ele><time>2026-04-12T08:39:28.998Z</time></trkpt><trkpt lat="45.37340764643809" lon="10.546589001895502"><ele>136.0</ele><time>2026-04-12T08:39:31.998Z</time></trkpt><trkpt lat="45.373372469108666" lon="10.54648538249674"><ele>134.5</ele><time>2026-04-12T08:39:34.998Z</time></trkpt><trkpt lat="45.37331953904169" lon="10.546419363663592"><ele>133.0</ele><time>2026-04-12T08:39:37.998Z</time></trkpt><trkpt lat="45.373278293371655" lon="10.54634813436048"><ele>131.5</ele><time>2026-04-12T08:39:40.998Z</time></trkpt><trkpt lat="45.3733269073605" lon="10.546251369147138"><ele>130.0</ele><time>2026-04-12T08:39:43.998Z</time></trkpt><trkpt lat="45.37339094199552" lon="10.546171179714786"><ele>129.5</ele><time>2026-04-12T08:39:47.997Z</time></trkpt><trkpt lat="45.373459397830906" lon="10.546095264541774"><ele>129.0</ele><time>2026-04-12T08:39:51.997Z</time></trkpt><trkpt lat="45.37352090751236" lon="10.546029558202344"><ele>128.5</ele><time>2026-04-12T08:39:54.997Z</time></trkpt><trkpt lat="45.37358739369173" lon="10.54596000656469"><ele>128.0</ele><time>2026-04-12T08:39:57.997Z</time></trkpt><trkpt lat="45.37364450513079" lon="10.545882262754422"><ele>127.50000000000001</ele><time>2026-04-12T08:40:00.997Z</time></trkpt><trkpt lat="45.37371354483303" lon="10.545835278401695"><ele>127.0</ele><time>2026-04-12T08:40:03.997Z</time></trkpt><trkpt lat="45.37376854803074" lon="10.545766132490678"><ele>127.00000000000001</ele><time>2026-04-12T08:40:06.997Z</time></trkpt><trkpt lat="45.373828205316855" lon="10.54569367323592"><ele>127.0</ele><time>2026-04-12T08:40:09.997Z</time></trkpt><trkpt lat="45.37387295322932" lon="10.545602132593475"><ele>127.0</ele><time>2026-04-12T08:40:12.997Z</time></trkpt><trkpt lat="45.37385452604034" lon="10.545501803560022"><ele>127.0</ele><time>2026-04-12T08:40:15.997Z</time></trkpt><trkpt lat="45.37384393948603" lon="10.545401589084962"><ele>127.00000000000001</ele><time>2026-04-12T08:40:18.997Z</time></trkpt><trkpt lat="45.37386824629709" lon="10.545303018197721"><ele>127.0</ele><time>2026-04-12T08:40:21.997Z</time></trkpt><trkpt lat="45.37391776608017" lon="10.545207527580278"><ele>127.85714285714286</ele><time>2026-04-12T08:40:25.996Z</time></trkpt><trkpt lat="45.37395511887486" lon="10.545124158287242"><ele>128.71428571428572</ele><time>2026-04-12T08:40:28.999Z</time></trkpt><trkpt lat="45.37401217855459" lon="10.545052462352386"><ele>129.57142857142856</ele><time>2026-04-12T08:40:31.999Z</time></trkpt><trkpt lat="45.37406944545738" lon="10.544981555005144"><ele>130.42857142857144</ele><time>2026-04-12T08:40:34.999Z</time></trkpt><trkpt lat="45.37412558568039" lon="10.544926108047402"><ele>131.28571428571428</ele><time>2026-04-12T08:40:37.999Z</time></trkpt><trkpt lat="45.37418178191171" lon="10.544860051828628"><ele>132.14285714285714</ele><time>2026-04-12T08:40:40.999Z</time></trkpt><trkpt lat="45.37423537526806" lon="10.544783271790426"><ele>133.0</ele><time>2026-04-12T08:40:43.999Z</time></trkpt><trkpt lat="45.3742860940341" lon="10.544704842679419"><ele>133.0</ele><time>2026-04-12T08:40:46.999Z</time></trkpt><trkpt lat="45.37434126277155" lon="10.54464356733215"><ele>133.0</ele><time>2026-04-12T08:40:49.999Z</time></trkpt><trkpt lat="45.374400761899885" lon="10.544572824391658"><ele>133.0</ele><time>2026-04-12T08:40:52.999Z</time></trkpt><trkpt lat="45.37446956170546" lon="10.54451340350401"><ele>133.0</ele><time>2026-04-12T08:40:55.999Z</time></trkpt><trkpt lat="45.37453127618504" lon="10.544447681186162"><ele>133.0</ele><time>2026-04-12T08:40:58.999Z</time></trkpt><trkpt lat="45.37456951319712" lon="10.544342224875232"><ele>133.0</ele><time>2026-04-12T08:41:01.999Z</time></trkpt><trkpt lat="45.37461939080471" lon="10.54424718920933"><ele>132.5</ele><time>2026-04-12T08:41:04.999Z</time></trkpt><trkpt lat="45.37468375197463" lon="10.544177672880453"><ele>132.0</ele><time>2026-04-12T08:41:07.999Z</time></trkpt><trkpt lat="45.374756619338925" lon="10.544118661879066"><ele>131.5</ele><time>2026-04-12T08:41:10.999Z</time></trkpt><trkpt lat="45.374813837041906" lon="10.54404018682541"><ele>131.0</ele><time>2026-04-12T08:41:13.998Z</time></trkpt><trkpt lat="45.374878237056585" lon="10.543968720763393"><ele>130.5</ele><time>2026-04-12T08:41:16.998Z</time></trkpt><trkpt lat="45.374957429130085" lon="10.543920335073611"><ele>130.0</ele><time>2026-04-12T08:41:19.998Z</time></trkpt><trkpt lat="45.374943958794425" lon="10.544015088996494"><ele>130.00000000000003</ele><time>2026-04-12T08:41:39.998Z</time></trkpt><trkpt lat="45.374913585815655" lon="10.54410792118585"><ele>130.0</ele><time>2026-04-12T08:41:45.998Z</time></trkpt><trkpt lat="45.37488568315728" lon="10.544200204538386"><ele>130.0</ele><time>2026-04-12T08:41:48.998Z</time></trkpt><trkpt lat="45.374829425586285" lon="10.544274498431024"><ele>130.0</ele><time>2026-04-12T08:41:53.997Z</time></trkpt><trkpt lat="45.374791741187245" lon="10.544366543856054"><ele>130.0</ele><time>2026-04-12T08:41:58.997Z</time></trkpt><trkpt lat="45.37475062363576" lon="10.544453478417696"><ele>130.00000000000003</ele><time>2026-04-12T08:42:02.997Z</time></trkpt><trkpt lat="45.37471195098679" lon="10.544530171598515"><ele>130.0</ele><time>2026-04-12T08:42:05.997Z</time></trkpt><trkpt lat="45.37467519434275" lon="10.544619688860351"><ele>130.42857142857144</ele><time>2026-04-12T08:42:09.997Z</time></trkpt><trkpt lat="45.37463881417729" lon="10.544712223309606"><ele>130.85714285714286</ele><time>2026-04-12T08:42:12.997Z</time></trkpt><trkpt lat="45.37460058449273" lon="10.544828291390477"><ele>131.28571428571428</ele><time>2026-04-12T08:42:15.997Z</time></trkpt><trkpt lat="45.374558253586784" lon="10.544912458223726"><ele>131.71428571428572</ele><time>2026-04-12T08:42:18.997Z</time></trkpt><trkpt lat="45.374510952408784" lon="10.54497909552008"><ele>132.14285714285714</ele><time>2026-04-12T08:42:21.997Z</time></trkpt><trkpt lat="45.37446892046545" lon="10.54505668821764"><ele>132.57142857142858</ele><time>2026-04-12T08:42:24.997Z</time></trkpt><trkpt lat="45.37442518210125" lon="10.54513441130381"><ele>133.0</ele><time>2026-04-12T08:42:27.997Z</time></trkpt><trkpt lat="45.37437202146186" lon="10.545200818179188"><ele>133.0</ele><time>2026-04-12T08:42:30.997Z</time></trkpt><trkpt lat="45.37433914902173" lon="10.545317816911876"><ele>133.0</ele><time>2026-04-12T08:42:34.999Z</time></trkpt><trkpt lat="45.37434598271266" lon="10.545427870283667"><ele>133.0</ele><time>2026-04-12T08:42:37.999Z</time></trkpt><trkpt lat="45.374391383521164" lon="10.545504824581423"><ele>133.0</ele><time>2026-04-12T08:42:40.999Z</time></trkpt><trkpt lat="45.374452027476764" lon="10.545567792884794"><ele>133.0</ele><time>2026-04-12T08:42:44.998Z</time></trkpt><trkpt lat="45.37451051437403" lon="10.545642205776227"><ele>133.0</ele><time>2026-04-12T08:42:48.998Z</time></trkpt><trkpt lat="45.3745736027027" lon="10.545684765482102"><ele>134.28571428571428</ele><time>2026-04-12T08:42:52.998Z</time></trkpt><trkpt lat="45.37464172466326" lon="10.545741234021996"><ele>135.57142857142856</ele><time>2026-04-12T08:42:57.998Z</time></trkpt><trkpt lat="45.374711687117504" lon="10.545787488527496"><ele>136.85714285714286</ele><time>2026-04-12T08:43:02.998Z</time></trkpt><trkpt lat="45.374768664949" lon="10.545835196225516"><ele>138.14285714285714</ele><time>2026-04-12T08:43:06.998Z</time></trkpt><trkpt lat="45.374781719243565" lon="10.545927782279739"><ele>139.42857142857142</ele><time>2026-04-12T08:43:10.998Z</time></trkpt><trkpt lat="45.374756992654895" lon="10.54602775192651"><ele>140.71428571428572</ele><time>2026-04-12T08:43:14.998Z</time></trkpt><trkpt lat="45.374745504277925" lon="10.546132341810821"><ele>142.0</ele><time>2026-04-12T08:43:18.998Z</time></trkpt><trkpt lat="45.37475155932118" lon="10.546225507329476"><ele>144.28571428571428</ele><time>2026-04-12T08:43:21.998Z</time></trkpt><trkpt lat="45.37477430762669" lon="10.546313662570872"><ele>146.57142857142856</ele><time>2026-04-12T08:43:24.997Z</time></trkpt><trkpt lat="45.37480059593028" lon="10.546424996628193"><ele>148.85714285714286</ele><time>2026-04-12T08:43:28.997Z</time></trkpt><trkpt lat="45.37481645872102" lon="10.546542990387342"><ele>151.14285714285714</ele><time>2026-04-12T08:43:32.997Z</time></trkpt><trkpt lat="45.3748259207278" lon="10.546638089567848"><ele>153.42857142857144</ele><time>2026-04-12T08:43:35.997Z</time></trkpt><trkpt lat="45.37483885242797" lon="10.546733932027232"><ele>155.71428571428572</ele><time>2026-04-12T08:43:38.997Z</time></trkpt><trkpt lat="45.374838143189876" lon="10.546842370049442"><ele>158.0</ele><time>2026-04-12T08:43:41.997Z</time></trkpt><trkpt lat="45.37483932960746" lon="10.546938557694808"><ele>158.00000000000003</ele><time>2026-04-12T08:43:44.997Z</time></trkpt><trkpt lat="45.37484912231102" lon="10.547042757198945"><ele>158.0</ele><time>2026-04-12T08:43:47.997Z</time></trkpt><trkpt lat="45.37489025572272" lon="10.547145862214274"><ele>158.0</ele><time>2026-04-12T08:43:51.997Z</time></trkpt><trkpt lat="45.37495584840598" lon="10.547200340046636"><ele>158.0</ele><time>2026-04-12T08:43:55.997Z</time></trkpt><trkpt lat="45.37500401489085" lon="10.547119995466748"><ele>158.0</ele><time>2026-04-12T08:44:00.997Z</time></trkpt><trkpt lat="45.37502792055495" lon="10.547023022956987"><ele>158.00000000000003</ele><time>2026-04-12T08:44:05.996Z</time></trkpt><trkpt lat="45.374996381692135" lon="10.54694426184548"><ele>158.0</ele><time>2026-04-12T08:44:19.996Z</time></trkpt><trkpt lat="45.37498483787229" lon="10.546835172655365"><ele>158.00000000000003</ele><time>2026-04-12T08:44:23.996Z</time></trkpt><trkpt lat="45.37498292792777" lon="10.546744279492987"><ele>158.0</ele><time>2026-04-12T08:44:26.996Z</time></trkpt><trkpt lat="45.37498013005868" lon="10.546641755058642"><ele>158.0</ele><time>2026-04-12T08:44:29.996Z</time></trkpt><trkpt lat="45.374965191614805" lon="10.546538972619723"><ele>158.0</ele><time>2026-04-12T08:44:32.996Z</time></trkpt><trkpt lat="45.374947941330376" lon="10.546428468842116"><ele>158.0</ele><time>2026-04-12T08:44:35.996Z</time></trkpt><trkpt lat="45.37491619562727" lon="10.546310556217437"><ele>158.00000000000003</ele><time>2026-04-12T08:44:38.996Z</time></trkpt><trkpt lat="45.37490942247173" lon="10.54621427270217"><ele>158.0</ele><time>2026-04-12T08:44:41.999Z</time></trkpt><trkpt lat="45.37491276532255" lon="10.546105777090004"><ele>157.66666666666666</ele><time>2026-04-12T08:44:44.998Z</time></trkpt><trkpt lat="45.37493886526279" lon="10.545990422738704"><ele>157.33333333333331</ele><time>2026-04-12T08:44:47.999Z</time></trkpt><trkpt lat="45.37495983112165" lon="10.545903389746629"><ele>157.0</ele><time>2026-04-12T08:44:50.998Z</time></trkpt><trkpt lat="45.374988669356654" lon="10.545805067483624"><ele>156.66666666666666</ele><time>2026-04-12T08:44:54.999Z</time></trkpt><trkpt lat="45.37502598297164" lon="10.545723430861516"><ele>156.33333333333334</ele><time>2026-04-12T08:44:57.999Z</time></trkpt><trkpt lat="45.37505804005888" lon="10.545616511555712"><ele>156.0</ele><time>2026-04-12T08:45:00.999Z</time></trkpt><trkpt lat="45.375087898530765" lon="10.545518737589973"><ele>156.0</ele><time>2026-04-12T08:45:03.999Z</time></trkpt><trkpt lat="45.37510306474516" lon="10.545423419359311"><ele>156.0</ele><time>2026-04-12T08:45:06.999Z</time></trkpt><trkpt lat="45.37514390602577" lon="10.545329883232613"><ele>156.0</ele><time>2026-04-12T08:45:09.999Z</time></trkpt><trkpt lat="45.37518998217257" lon="10.545238329771129"><ele>156.0</ele><time>2026-04-12T08:45:13.998Z</time></trkpt><trkpt lat="45.37521918263573" lon="10.545146879868177"><ele>156.0</ele><time>2026-04-12T08:45:17.998Z</time></trkpt><trkpt lat="45.375258506772035" lon="10.545052492994495"><ele>156.0</ele><time>2026-04-12T08:45:22.998Z</time></trkpt><trkpt lat="45.3752912291758" lon="10.544970429743586"><ele>156.0</ele><time>2026-04-12T08:45:28.998Z</time></trkpt><trkpt lat="45.37534059295509" lon="10.544889945422135"><ele>154.71428571428572</ele><time>2026-04-12T08:45:33.998Z</time></trkpt><trkpt lat="45.37538250560448" lon="10.544807602568367"><ele>153.42857142857142</ele><time>2026-04-12T08:45:40.998Z</time></trkpt><trkpt lat="45.37543449919675" lon="10.54473359717275"><ele>152.14285714285714</ele><time>2026-04-12T08:45:46.998Z</time></trkpt><trkpt lat="45.375491461871874" lon="10.54467293694275"><ele>150.85714285714286</ele><time>2026-04-12T08:45:51.997Z</time></trkpt><trkpt lat="45.37553273672958" lon="10.544582691317299"><ele>149.57142857142856</ele><time>2026-04-12T08:45:57.997Z</time></trkpt><trkpt lat="45.375581455904005" lon="10.54450668330264"><ele>148.28571428571428</ele><time>2026-04-12T08:46:03.997Z</time></trkpt><trkpt lat="45.37565694462757" lon="10.544471173261254"><ele>147.0</ele><time>2026-04-12T08:46:08.997Z</time></trkpt><trkpt lat="45.37567879836943" lon="10.544378911189193"><ele>144.16666666666666</ele><time>2026-04-12T08:46:11.997Z</time></trkpt><trkpt lat="45.37569691291159" lon="10.544291858370249"><ele>141.33333333333334</ele><time>2026-04-12T08:46:14.997Z</time></trkpt><trkpt lat="45.37572136350949" lon="10.544177170283366"><ele>138.5</ele><time>2026-04-12T08:46:18.997Z</time></trkpt><trkpt lat="45.375699573105244" lon="10.544065106063265"><ele>135.66666666666669</ele><time>2026-04-12T08:46:21.997Z</time></trkpt><trkpt lat="45.37568617462264" lon="10.543948601258274"><ele>132.83333333333334</ele><time>2026-04-12T08:46:24.997Z</time></trkpt><trkpt lat="45.37566467052963" lon="10.543840963884524"><ele>130.0</ele><time>2026-04-12T08:46:27.997Z</time></trkpt><trkpt lat="45.37563404395829" lon="10.543719944005979"><ele>129.33333333333334</ele><time>2026-04-12T08:46:30.996Z</time></trkpt><trkpt lat="45.37558402380306" lon="10.543620386025962"><ele>128.66666666666669</ele><time>2026-04-12T08:46:33.996Z</time></trkpt><trkpt lat="45.37554040709917" lon="10.543521163822035"><ele>128.0</ele><time>2026-04-12T08:46:36.996Z</time></trkpt><trkpt lat="45.375491910007284" lon="10.543437946226355"><ele>127.33333333333334</ele><time>2026-04-12T08:46:39.996Z</time></trkpt><trkpt lat="45.37541764111188" lon="10.5433975944494"><ele>126.66666666666667</ele><time>2026-04-12T08:46:42.996Z</time></trkpt><trkpt lat="45.37533869745722" lon="10.54335816959795"><ele>126.0</ele><time>2026-04-12T08:46:45.996Z</time></trkpt><trkpt lat="45.375264301861606" lon="10.543336323793838"><ele>126.0</ele><time>2026-04-12T08:46:48.998Z</time></trkpt><trkpt lat="45.375178532326004" lon="10.543377143522864"><ele>126.0</ele><time>2026-04-12T08:46:51.998Z</time></trkpt><trkpt lat="45.3750900078396" lon="10.543371572204181"><ele>126.0</ele><time>2026-04-12T08:46:54.998Z</time></trkpt><trkpt lat="45.37501061032947" lon="10.543372366390765"><ele>126.0</ele><time>2026-04-12T08:46:57.999Z</time></trkpt><trkpt lat="45.37493084887793" lon="10.543379219932145"><ele>126.0</ele><time>2026-04-12T08:47:00.998Z</time></trkpt><trkpt lat="45.37485036462574" lon="10.54340112798533"><ele>126.0</ele><time>2026-04-12T08:47:03.998Z</time></trkpt><trkpt lat="45.37477381059701" lon="10.543397610352134"><ele>126.0</ele><time>2026-04-12T08:47:06.998Z</time></trkpt><trkpt lat="45.3747002319819" lon="10.543378486943578"><ele>126.0</ele><time>2026-04-12T08:47:09.998Z</time></trkpt><trkpt lat="45.374626527227825" lon="10.54333635448769"><ele>126.0</ele><time>2026-04-12T08:47:12.998Z</time></trkpt><trkpt lat="45.374552908729214" lon="10.543288873973774"><ele>126.0</ele><time>2026-04-12T08:47:15.997Z</time></trkpt><trkpt lat="45.37449698369011" lon="10.543224005129042"><ele>126.0</ele><time>2026-04-12T08:47:18.997Z</time></trkpt><trkpt lat="45.374430333338545" lon="10.543171380528438"><ele>126.0</ele><time>2026-04-12T08:47:22.997Z</time></trkpt><trkpt lat="45.37443006374223" lon="10.543073305708713"><ele>126.33333333333333</ele><time>2026-04-12T08:47:28.997Z</time></trkpt><trkpt lat="45.37444841616874" lon="10.542983117268603"><ele>126.66666666666666</ele><time>2026-04-12T08:47:33.997Z</time></trkpt><trkpt lat="45.37449457676868" lon="10.542913935055257"><ele>127.0</ele><time>2026-04-12T08:47:38.997Z</time></trkpt><trkpt lat="45.37456760501304" lon="10.542840165349034"><ele>127.33333333333333</ele><time>2026-04-12T08:47:43.997Z</time></trkpt><trkpt lat="45.37463460700545" lon="10.542789212102186"><ele>127.66666666666666</ele><time>2026-04-12T08:47:46.997Z</time></trkpt><trkpt lat="45.374685644906464" lon="10.542711211419569"><ele>128.0</ele><time>2026-04-12T08:47:49.997Z</time></trkpt><trkpt lat="45.374756264412184" lon="10.54265178313789"><ele>128.42857142857142</ele><time>2026-04-12T08:47:52.997Z</time></trkpt><trkpt lat="45.374819654092995" lon="10.542600358893065"><ele>128.85714285714283</ele><time>2026-04-12T08:47:55.996Z</time></trkpt><trkpt lat="45.3748723895996" lon="10.542528708142815"><ele>129.28571428571428</ele><time>2026-04-12T08:47:58.996Z</time></trkpt><trkpt lat="45.37492313815767" lon="10.54245139039603"><ele>129.71428571428572</ele><time>2026-04-12T08:48:01.996Z</time></trkpt><trkpt lat="45.37497283384204" lon="10.542370683288006"><ele>130.14285714285717</ele><time>2026-04-12T08:48:04.996Z</time></trkpt><trkpt lat="45.37501111756046" lon="10.54228434883272"><ele>130.57142857142858</ele><time>2026-04-12T08:48:07.996Z</time></trkpt><trkpt lat="45.375041976314286" lon="10.54218826906799"><ele>131.0</ele><time>2026-04-12T08:48:10.996Z</time></trkpt><trkpt lat="45.37506522358755" lon="10.5421014786009"><ele>132.28571428571428</ele><time>2026-04-12T08:48:13.996Z</time></trkpt><trkpt lat="45.37510251479651" lon="10.54201978844437"><ele>133.57142857142858</ele><time>2026-04-12T08:48:16.996Z</time></trkpt><trkpt lat="45.37512187934916" lon="10.54192035483013"><ele>134.85714285714286</ele><time>2026-04-12T08:48:19.996Z</time></trkpt><trkpt lat="45.37514493864912" lon="10.541824485309206"><ele>136.14285714285714</ele><time>2026-04-12T08:48:22.996Z</time></trkpt><trkpt lat="45.37517599759066" lon="10.541730836390917"><ele>137.42857142857144</ele><time>2026-04-12T08:48:25.996Z</time></trkpt><trkpt lat="45.37521268391274" lon="10.541635355875751"><ele>138.71428571428572</ele><time>2026-04-12T08:48:28.996Z</time></trkpt><trkpt lat="45.37525103531356" lon="10.541538157278389"><ele>140.0</ele><time>2026-04-12T08:48:31.996Z</time></trkpt><trkpt lat="45.375324642609044" lon="10.541480837771964"><ele>140.0</ele><time>2026-04-12T08:48:34.995Z</time></trkpt><trkpt lat="45.375386172684664" lon="10.541429562810135"><ele>140.0</ele><time>2026-04-12T08:48:37.995Z</time></trkpt><trkpt lat="45.37544662960628" lon="10.541382625319494"><ele>140.0</ele><time>2026-04-12T08:48:41.995Z</time></trkpt><trkpt lat="45.37550581467868" lon="10.541316883103022"><ele>140.0</ele><time>2026-04-12T08:48:44.995Z</time></trkpt><trkpt lat="45.375584041411614" lon="10.541272418530538"><ele>140.0</ele><time>2026-04-12T08:48:48.995Z</time></trkpt><trkpt lat="45.375643582057585" lon="10.541233169847834"><ele>140.0</ele><time>2026-04-12T08:48:51.995Z</time></trkpt><trkpt lat="45.3757062654318" lon="10.541216257601478"><ele>140.0</ele><time>2026-04-12T08:48:54.998Z</time></trkpt><trkpt lat="45.37577142946744" lon="10.541210893216258"><ele>141.33333333333331</ele><time>2026-04-12T08:48:57.998Z</time></trkpt><trkpt lat="45.375847974415606" lon="10.54118827971966"><ele>142.66666666666666</ele><time>2026-04-12T08:49:00.998Z</time></trkpt><trkpt lat="45.37592488378951" lon="10.541162435398919"><ele>144.0</ele><time>2026-04-12T08:49:03.998Z</time></trkpt><trkpt lat="45.37599451067056" lon="10.541141302217252"><ele>145.33333333333334</ele><time>2026-04-12T08:49:06.998Z</time></trkpt><trkpt lat="45.376069659699056" lon="10.54113832644598"><ele>146.66666666666669</ele><time>2026-04-12T08:49:09.998Z</time></trkpt><trkpt lat="45.37614566203002" lon="10.541112377525462"><ele>148.0</ele><time>2026-04-12T08:49:12.998Z</time></trkpt><trkpt lat="45.376218047877074" lon="10.541090364465838"><ele>148.0</ele><time>2026-04-12T08:49:15.998Z</time></trkpt><trkpt lat="45.376290896684246" lon="10.541059927776555"><ele>148.0</ele><time>2026-04-12T08:49:18.998Z</time></trkpt><trkpt lat="45.37635662788572" lon="10.541041782640985"><ele>148.0</ele><time>2026-04-12T08:49:21.998Z</time></trkpt><trkpt lat="45.37642044568306" lon="10.541032332239268"><ele>148.0</ele><time>2026-04-12T08:49:24.998Z</time></trkpt><trkpt lat="45.37650264202786" lon="10.541018601666613"><ele>148.0</ele><time>2026-04-12T08:49:28.998Z</time></trkpt><trkpt lat="45.37656245294946" lon="10.540956613857599"><ele>148.0</ele><time>2026-04-12T08:49:31.998Z</time></trkpt><trkpt lat="45.37662631919899" lon="10.54092833698198"><ele>148.0</ele><time>2026-04-12T08:49:34.998Z</time></trkpt><trkpt lat="45.37670532613877" lon="10.540915495762963"><ele>148.0</ele><time>2026-04-12T08:49:38.998Z</time></trkpt><trkpt lat="45.37676712110323" lon="10.540885698446186"><ele>148.0</ele><time>2026-04-12T08:49:41.998Z</time></trkpt><trkpt lat="45.376831101936254" lon="10.540881673623451"><ele>148.0</ele><time>2026-04-12T08:49:44.997Z</time></trkpt><trkpt lat="45.37689224204184" lon="10.540850324401886"><ele>148.0</ele><time>2026-04-12T08:49:47.997Z</time></trkpt><trkpt lat="45.3769586640191" lon="10.540793421926091"><ele>148.0</ele><time>2026-04-12T08:49:51.997Z</time></trkpt><trkpt lat="45.37699083383882" lon="10.540703992205808"><ele>148.0</ele><time>2026-04-12T08:49:55.997Z</time></trkpt><trkpt lat="45.377049820507274" lon="10.540648877531172"><ele>148.0</ele><time>2026-04-12T08:49:59.997Z</time></trkpt><trkpt lat="45.37711332004381" lon="10.540645292039288"><ele>148.66666666666669</ele><time>2026-04-12T08:50:04.997Z</time></trkpt><trkpt lat="45.37719423001787" lon="10.54062611709544"><ele>149.33333333333334</ele><time>2026-04-12T08:50:14.997Z</time></trkpt><trkpt lat="45.37726773561521" lon="10.540630430674218"><ele>150.0</ele><time>2026-04-12T08:50:21.996Z</time></trkpt><trkpt lat="45.377344913590655" lon="10.540625584462878"><ele>150.66666666666666</ele><time>2026-04-12T08:50:27.996Z</time></trkpt><trkpt lat="45.37742537308573" lon="10.540625604343498"><ele>151.33333333333331</ele><time>2026-04-12T08:50:32.996Z</time></trkpt><trkpt lat="45.3775050544641" lon="10.540614655662067"><ele>152.0</ele><time>2026-04-12T08:50:35.996Z</time></trkpt><trkpt lat="45.37758465251347" lon="10.540580876436195"><ele>152.0</ele><time>2026-04-12T08:50:39.996Z</time></trkpt><trkpt lat="45.37764164648785" lon="10.540625072171162"><ele>152.0</ele><time>2026-04-12T08:50:43.996Z</time></trkpt><trkpt lat="45.37771620523227" lon="10.540632298253525"><ele>152.0</ele><time>2026-04-12T08:50:47.996Z</time></trkpt><trkpt lat="45.37781545948206" lon="10.540627823607462"><ele>152.0</ele><time>2026-04-12T08:50:50.996Z</time></trkpt><trkpt lat="45.37787015008209" lon="10.540581433299844"><ele>152.0</ele><time>2026-04-12T08:50:51.996Z</time></trkpt><trkpt lat="45.377927224577995" lon="10.540520731269265"><ele>152.0</ele><time>2026-04-12T08:50:53.996Z</time></trkpt><trkpt lat="45.377984396419016" lon="10.540441939717928"><ele>153.28571428571428</ele><time>2026-04-12T08:50:56.996Z</time></trkpt><trkpt lat="45.378043379414436" lon="10.540371914158916"><ele>154.57142857142858</ele><time>2026-04-12T08:50:59.998Z</time></trkpt><trkpt lat="45.37809433295999" lon="10.540293943659186"><ele>155.85714285714286</ele><time>2026-04-12T08:51:02.997Z</time></trkpt><trkpt lat="45.37812649216031" lon="10.540204547472657"><ele>157.14285714285714</ele><time>2026-04-12T08:51:05.998Z</time></trkpt><trkpt lat="45.37815769274013" lon="10.540118453953744"><ele>158.42857142857144</ele><time>2026-04-12T08:51:08.997Z</time></trkpt><trkpt lat="45.37820110495581" lon="10.540022990945223"><ele>159.71428571428572</ele><time>2026-04-12T08:51:12.998Z</time></trkpt><trkpt lat="45.378248303444835" lon="10.539936550938188"><ele>161.0</ele><time>2026-04-12T08:51:16.998Z</time></trkpt><trkpt lat="45.378287608422355" lon="10.539842337135745"><ele>161.0</ele><time>2026-04-12T08:51:20.998Z</time></trkpt><trkpt lat="45.37831429108913" lon="10.539756891183687"><ele>161.0</ele><time>2026-04-12T08:51:25.998Z</time></trkpt><trkpt lat="45.378331966577115" lon="10.539657910428367"><ele>161.0</ele><time>2026-04-12T08:51:30.998Z</time></trkpt><trkpt lat="45.378345477793204" lon="10.539567680760115"><ele>161.0</ele><time>2026-04-12T08:51:34.998Z</time></trkpt><trkpt lat="45.378357046275156" lon="10.539470564753074"><ele>161.0</ele><time>2026-04-12T08:51:38.997Z</time></trkpt><trkpt lat="45.378367643321404" lon="10.539380555718575"><ele>161.0</ele><time>2026-04-12T08:51:41.997Z</time></trkpt><trkpt lat="45.37838195631916" lon="10.539271563072178"><ele>161.0</ele><time>2026-04-12T08:51:45.997Z</time></trkpt><trkpt lat="45.37840905594777" lon="10.539145618148932"><ele>161.66666666666666</ele><time>2026-04-12T08:51:48.997Z</time></trkpt><trkpt lat="45.378418169159865" lon="10.539034045751285"><ele>162.33333333333331</ele><time>2026-04-12T08:51:51.997Z</time></trkpt><trkpt lat="45.37843173258497" lon="10.538928144744384"><ele>163.0</ele><time>2026-04-12T08:51:54.997Z</time></trkpt><trkpt lat="45.37845802415597" lon="10.538828638849598"><ele>163.66666666666666</ele><time>2026-04-12T08:51:57.997Z</time></trkpt><trkpt lat="45.37847992314741" lon="10.538719692692846"><ele>164.33333333333334</ele><time>2026-04-12T08:52:00.997Z</time></trkpt><trkpt lat="45.378495309126784" lon="10.538622425838803"><ele>165.0</ele><time>2026-04-12T08:52:03.997Z</time></trkpt><trkpt lat="45.378517601312005" lon="10.53852344677546"><ele>165.42857142857144</ele><time>2026-04-12T08:52:06.997Z</time></trkpt><trkpt lat="45.37854878018918" lon="10.538436343653597"><ele>165.85714285714286</ele><time>2026-04-12T08:52:09.997Z</time></trkpt><trkpt lat="45.37860785073361" lon="10.538349911429114"><ele>166.28571428571428</ele><time>2026-04-12T08:52:13.997Z</time></trkpt><trkpt lat="45.378664572718606" lon="10.538281943196"><ele>166.71428571428572</ele><time>2026-04-12T08:52:17.996Z</time></trkpt><trkpt lat="45.378729098563504" lon="10.538256271041085"><ele>167.14285714285714</ele><time>2026-04-12T08:52:21.996Z</time></trkpt><trkpt lat="45.378777258613866" lon="10.53819350200352"><ele>167.57142857142858</ele><time>2026-04-12T08:52:25.996Z</time></trkpt><trkpt lat="45.37881098679407" lon="10.538100903166672"><ele>168.0</ele><time>2026-04-12T08:52:28.996Z</time></trkpt><trkpt lat="45.37885757362499" lon="10.53798856397123"><ele>167.83333333333334</ele><time>2026-04-12T08:52:31.996Z</time></trkpt><trkpt lat="45.378889304490734" lon="10.53787712643951"><ele>167.66666666666666</ele><time>2026-04-12T08:52:34.996Z</time></trkpt><trkpt lat="45.37892952441156" lon="10.537773840172019"><ele>167.5</ele><time>2026-04-12T08:52:37.996Z</time></trkpt><trkpt lat="45.37898384384445" lon="10.537688089607705"><ele>167.33333333333331</ele><time>2026-04-12T08:52:40.996Z</time></trkpt><trkpt lat="45.379033386408025" lon="10.53759013924768"><ele>167.16666666666666</ele><time>2026-04-12T08:52:43.996Z</time></trkpt><trkpt lat="45.37907987781697" lon="10.537526761336464"><ele>167.0</ele><time>2026-04-12T08:52:45.996Z</time></trkpt><trkpt lat="45.379137720110926" lon="10.537470331276811"><ele>167.0</ele><time>2026-04-12T08:52:48.996Z</time></trkpt><trkpt lat="45.379218889903214" lon="10.537425753410451"><ele>167.0</ele><time>2026-04-12T08:52:51.996Z</time></trkpt><trkpt lat="45.37929349382989" lon="10.537377512799136"><ele>167.0</ele><time>2026-04-12T08:52:54.996Z</time></trkpt><trkpt lat="45.37936040902809" lon="10.537308826301196"><ele>167.0</ele><time>2026-04-12T08:52:57.995Z</time></trkpt><trkpt lat="45.37942742325115" lon="10.537222740599287"><ele>167.0</ele><time>2026-04-12T08:53:00.995Z</time></trkpt><trkpt lat="45.379474391016196" lon="10.537160400476877"><ele>167.0</ele><time>2026-04-12T08:53:02.998Z</time></trkpt><trkpt lat="45.37954324436982" lon="10.537074799831398"><ele>168.5</ele><time>2026-04-12T08:53:05.998Z</time></trkpt><trkpt lat="45.37959704031155" lon="10.536972594291726"><ele>170.0</ele><time>2026-04-12T08:53:08.998Z</time></trkpt><trkpt lat="45.37965813292831" lon="10.536891429599637"><ele>171.5</ele><time>2026-04-12T08:53:11.998Z</time></trkpt><trkpt lat="45.37970331139974" lon="10.536815895794671"><ele>173.0</ele><time>2026-04-12T08:53:14.997Z</time></trkpt><trkpt lat="45.37976175029085" lon="10.536731619194073"><ele>174.5</ele><time>2026-04-12T08:53:17.997Z</time></trkpt><trkpt lat="45.37981823991882" lon="10.536654372125936"><ele>176.0</ele><time>2026-04-12T08:53:20.997Z</time></trkpt><trkpt lat="45.37988188234351" lon="10.536577790626886"><ele>174.5</ele><time>2026-04-12T08:53:23.997Z</time></trkpt><trkpt lat="45.37995512133843" lon="10.536520085318646"><ele>173.0</ele><time>2026-04-12T08:53:26.997Z</time></trkpt><trkpt lat="45.38003196073071" lon="10.536463526572662"><ele>171.5</ele><time>2026-04-12T08:53:29.997Z</time></trkpt><trkpt lat="45.380084900443705" lon="10.536354544254502"><ele>170.0</ele><time>2026-04-12T08:53:32.997Z</time></trkpt><trkpt lat="45.38009887521711" lon="10.536266541984704"><ele>168.5</ele><time>2026-04-12T08:53:34.997Z</time></trkpt><trkpt lat="45.38010598543353" lon="10.536158092310739"><ele>167.0</ele><time>2026-04-12T08:53:37.997Z</time></trkpt><trkpt lat="45.38013765727967" lon="10.536058915407773"><ele>167.0</ele><time>2026-04-12T08:53:40.997Z</time></trkpt><trkpt lat="45.38016953645084" lon="10.535959292672887"><ele>167.0</ele><time>2026-04-12T08:53:43.997Z</time></trkpt><trkpt lat="45.380186461407455" lon="10.535865222254577"><ele>167.0</ele><time>2026-04-12T08:53:46.997Z</time></trkpt><trkpt lat="45.380189950302146" lon="10.535773195543701"><ele>167.0</ele><time>2026-04-12T08:53:49.996Z</time></trkpt><trkpt lat="45.38021284898297" lon="10.535670552360461"><ele>167.0</ele><time>2026-04-12T08:53:53.996Z</time></trkpt><trkpt lat="45.38022444933249" lon="10.535561096482073"><ele>167.0</ele><time>2026-04-12T08:53:57.996Z</time></trkpt><trkpt lat="45.38023101564922" lon="10.53545409386869"><ele>167.0</ele><time>2026-04-12T08:54:01.996Z</time></trkpt><trkpt lat="45.38023753092548" lon="10.535361638202414"><ele>168.28571428571428</ele><time>2026-04-12T08:54:05.996Z</time></trkpt><trkpt lat="45.380257708789195" lon="10.535258310251365"><ele>169.57142857142858</ele><time>2026-04-12T08:54:09.996Z</time></trkpt><trkpt lat="45.38027970092351" lon="10.535171154286587"><ele>170.85714285714286</ele><time>2026-04-12T08:54:13.996Z</time></trkpt><trkpt lat="45.38028658476355" lon="10.535075649952367"><ele>172.14285714285714</ele><time>2026-04-12T08:54:17.996Z</time></trkpt><trkpt lat="45.380286273498896" lon="10.53498473495929"><ele>173.42857142857142</ele><time>2026-04-12T08:54:21.996Z</time></trkpt><trkpt lat="45.38029310351132" lon="10.534894048403956"><ele>174.71428571428572</ele><time>2026-04-12T08:54:25.996Z</time></trkpt><trkpt lat="45.38032439732702" lon="10.534800349954333"><ele>176.0</ele><time>2026-04-12T08:54:29.995Z</time></trkpt><trkpt lat="45.38036042275073" lon="10.534715083740998"><ele>176.0</ele><time>2026-04-12T08:54:33.995Z</time></trkpt><trkpt lat="45.38038664258894" lon="10.53460404591331"><ele>176.0</ele><time>2026-04-12T08:54:37.995Z</time></trkpt><trkpt lat="45.38042079210797" lon="10.534521815962362"><ele>176.0</ele><time>2026-04-12T08:54:40.995Z</time></trkpt><trkpt lat="45.380445489918685" lon="10.534434615506184"><ele>176.0</ele><time>2026-04-12T08:54:43.995Z</time></trkpt><trkpt lat="45.380463079172294" lon="10.534318435012903"><ele>176.0</ele><time>2026-04-12T08:54:47.995Z</time></trkpt><trkpt lat="45.38048449655863" lon="10.534232121824093"><ele>176.0</ele><time>2026-04-12T08:54:50.995Z</time></trkpt><trkpt lat="45.380514230373386" lon="10.534145917842432"><ele>176.0</ele><time>2026-04-12T08:54:53.995Z</time></trkpt><trkpt lat="45.38051226478688" lon="10.534042610441746"><ele>176.57142857142858</ele><time>2026-04-12T08:54:56.995Z</time></trkpt><trkpt lat="45.38048736309496" lon="10.533959159963828"><ele>177.14285714285714</ele><time>2026-04-12T08:54:58.995Z</time></trkpt><trkpt lat="45.38049781916941" lon="10.533861134815822"><ele>177.71428571428572</ele><time>2026-04-12T08:55:01.995Z</time></trkpt><trkpt lat="45.38047991315199" lon="10.533749222662676"><ele>178.28571428571428</ele><time>2026-04-12T08:55:04.995Z</time></trkpt><trkpt lat="45.380450834532574" lon="10.533657860312447"><ele>178.85714285714286</ele><time>2026-04-12T08:55:07.994Z</time></trkpt><trkpt lat="45.3804024415806" lon="10.533574804837436"><ele>179.42857142857142</ele><time>2026-04-12T08:55:12.997Z</time></trkpt><trkpt lat="45.380362602775" lon="10.533473519348718"><ele>180.0</ele><time>2026-04-12T08:55:17.998Z</time></trkpt><trkpt lat="45.38031827204961" lon="10.533400954109363"><ele>180.0</ele><time>2026-04-12T08:55:20.998Z</time></trkpt><trkpt lat="45.3802474019661" lon="10.533382948638387"><ele>180.0</ele><time>2026-04-12T08:55:29.998Z</time></trkpt><trkpt lat="45.38024858998922" lon="10.533283122967429"><ele>180.0</ele><time>2026-04-12T08:55:39.997Z</time></trkpt><trkpt lat="45.38030346699816" lon="10.53323178089769"><ele>180.0</ele><time>2026-04-12T08:55:42.997Z</time></trkpt><trkpt lat="45.380347796430414" lon="10.533146129919778"><ele>180.0</ele><time>2026-04-12T08:55:46.997Z</time></trkpt><trkpt lat="45.38040555553896" lon="10.533086940750783"><ele>180.0</ele><time>2026-04-12T08:55:49.997Z</time></trkpt><trkpt lat="45.380484465300015" lon="10.533025633868172"><ele>180.0</ele><time>2026-04-12T08:55:52.997Z</time></trkpt><trkpt lat="45.38054083320782" lon="10.532927641252547"><ele>177.33333333333334</ele><time>2026-04-12T08:55:55.997Z</time></trkpt><trkpt lat="45.380595466467184" lon="10.532845057772015"><ele>174.66666666666666</ele><time>2026-04-12T08:55:58.997Z</time></trkpt><trkpt lat="45.3806470492788" lon="10.532758034380803"><ele>172.0</ele><time>2026-04-12T08:56:01.997Z</time></trkpt><trkpt lat="45.38069575754656" lon="10.53266299428934"><ele>169.33333333333331</ele><time>2026-04-12T08:56:04.997Z</time></trkpt><trkpt lat="45.38074868140806" lon="10.532573850486392"><ele>166.66666666666666</ele><time>2026-04-12T08:56:07.997Z</time></trkpt><trkpt lat="45.38080201192946" lon="10.532483439262874"><ele>164.0</ele><time>2026-04-12T08:56:10.997Z</time></trkpt><trkpt lat="45.380834158768764" lon="10.532389637643185"><ele>164.0</ele><time>2026-04-12T08:56:13.996Z</time></trkpt><trkpt lat="45.380842503143484" lon="10.532282152878649"><ele>164.0</ele><time>2026-04-12T08:56:16.996Z</time></trkpt><trkpt lat="45.38087085051791" lon="10.532171953088834"><ele>164.0</ele><time>2026-04-12T08:56:19.996Z</time></trkpt><trkpt lat="45.38092055064235" lon="10.532059736427927"><ele>164.0</ele><time>2026-04-12T08:56:56.995Z</time></trkpt><trkpt lat="45.38096049950435" lon="10.53196883420851"><ele>164.0</ele><time>2026-04-12T08:57:10.995Z</time></trkpt><trkpt lat="45.38098247910171" lon="10.531865052848616"><ele>164.0</ele><time>2026-04-12T08:57:15.997Z</time></trkpt><trkpt lat="45.38099364226886" lon="10.531762815485225"><ele>164.16666666666666</ele><time>2026-04-12T08:57:19.997Z</time></trkpt><trkpt lat="45.3810321518843" lon="10.531656426017873"><ele>164.33333333333331</ele><time>2026-04-12T08:57:21.997Z</time></trkpt><trkpt lat="45.38105577133385" lon="10.531551439128679"><ele>164.5</ele><time>2026-04-12T08:57:24.997Z</time></trkpt><trkpt lat="45.38106666881378" lon="10.5314406386554"><ele>164.66666666666666</ele><time>2026-04-12T08:57:27.997Z</time></trkpt><trkpt lat="45.38106422668783" lon="10.531332787129909"><ele>164.83333333333334</ele><time>2026-04-12T08:57:30.997Z</time></trkpt><trkpt lat="45.381064432400166" lon="10.531202437264312"><ele>165.0</ele><time>2026-04-12T08:57:33.997Z</time></trkpt><trkpt lat="45.38105604318727" lon="10.531081100779677"><ele>164.0</ele><time>2026-04-12T08:57:36.997Z</time></trkpt><trkpt lat="45.38104890685664" lon="10.530969373581803"><ele>163.0</ele><time>2026-04-12T08:57:39.997Z</time></trkpt><trkpt lat="45.38106400872843" lon="10.530834736108005"><ele>162.0</ele><time>2026-04-12T08:57:42.997Z</time></trkpt><trkpt lat="45.38103134417035" lon="10.53072787717955"><ele>161.0</ele><time>2026-04-12T08:57:45.997Z</time></trkpt><trkpt lat="45.380989058176034" lon="10.53063459069169"><ele>160.0</ele><time>2026-04-12T08:57:48.997Z</time></trkpt><trkpt lat="45.38094243409719" lon="10.530547869162959"><ele>159.0</ele><time>2026-04-12T08:57:51.997Z</time></trkpt><trkpt lat="45.380902086334" lon="10.530466500306234"><ele>157.83333333333334</ele><time>2026-04-12T08:57:54.996Z</time></trkpt><trkpt lat="45.380842030818236" lon="10.530372649243727"><ele>156.66666666666666</ele><time>2026-04-12T08:57:58.996Z</time></trkpt><trkpt lat="45.38082020174612" lon="10.530257957726562"><ele>155.5</ele><time>2026-04-12T08:58:01.996Z</time></trkpt><trkpt lat="45.38081716273955" lon="10.530166656848898"><ele>154.33333333333331</ele><time>2026-04-12T08:58:04.996Z</time></trkpt><trkpt lat="45.38082261983012" lon="10.53006650561273"><ele>153.16666666666666</ele><time>2026-04-12T08:58:07.996Z</time></trkpt><trkpt lat="45.38082170885759" lon="10.529962114268617"><ele>152.0</ele><time>2026-04-12T08:58:10.996Z</time></trkpt><trkpt lat="45.38080063227839" lon="10.529840104366174"><ele>152.0</ele><time>2026-04-12T08:58:13.996Z</time></trkpt><trkpt lat="45.38081074556729" lon="10.529722841357493"><ele>152.0</ele><time>2026-04-12T08:58:16.996Z</time></trkpt><trkpt lat="45.38080208499171" lon="10.529600446276532"><ele>152.0</ele><time>2026-04-12T08:58:19.996Z</time></trkpt><trkpt lat="45.380790246446296" lon="10.529480184248833"><ele>152.0</ele><time>2026-04-12T08:58:22.996Z</time></trkpt><trkpt lat="45.38078553606166" lon="10.529390056975403"><ele>152.0</ele><time>2026-04-12T08:58:24.996Z</time></trkpt><trkpt lat="45.38075927701903" lon="10.529292788126718"><ele>152.0</ele><time>2026-04-12T08:58:26.996Z</time></trkpt><trkpt lat="45.38072993424721" lon="10.529211855140867"><ele>150.66666666666666</ele><time>2026-04-12T08:58:28.996Z</time></trkpt><trkpt lat="45.38072838915779" lon="10.529121025151591"><ele>149.33333333333331</ele><time>2026-04-12T08:58:30.996Z</time></trkpt><trkpt lat="45.380707658745905" lon="10.528993848199013"><ele>148.0</ele><time>2026-04-12T08:58:33.995Z</time></trkpt><trkpt lat="45.380676906707606" lon="10.528859035829665"><ele>146.66666666666666</ele><time>2026-04-12T08:58:36.995Z</time></trkpt><trkpt lat="45.380651209245826" lon="10.528756408785304"><ele>145.33333333333334</ele><time>2026-04-12T08:58:38.995Z</time></trkpt><trkpt lat="45.38060932422061" lon="10.528637923945688"><ele>144.0</ele><time>2026-04-12T08:58:40.995Z</time></trkpt><trkpt lat="45.38055045230856" lon="10.528574978376849"><ele>143.42857142857144</ele><time>2026-04-12T08:58:42.995Z</time></trkpt><trkpt lat="45.38049006393079" lon="10.528533837436052"><ele>142.85714285714286</ele><time>2026-04-12T08:58:44.995Z</time></trkpt><trkpt lat="45.38044244091378" lon="10.528469775604707"><ele>142.28571428571428</ele><time>2026-04-12T08:58:46.995Z</time></trkpt><trkpt lat="45.380361342233684" lon="10.528409890449085"><ele>141.71428571428572</ele><time>2026-04-12T08:58:49.995Z</time></trkpt><trkpt lat="45.380295871604645" lon="10.528408153367058"><ele>141.14285714285714</ele><time>2026-04-12T08:58:51.995Z</time></trkpt><trkpt lat="45.38024113485106" lon="10.528496416107405"><ele>140.57142857142858</ele><time>2026-04-12T08:58:54.995Z</time></trkpt><trkpt lat="45.380248463292084" lon="10.52859378708106"><ele>140.0</ele><time>2026-04-12T08:59:05.995Z</time></trkpt><trkpt lat="45.380250521713556" lon="10.52869474838481"><ele>141.57142857142858</ele><time>2026-04-12T08:59:14.994Z</time></trkpt><trkpt lat="45.380277118286884" lon="10.528802667606023"><ele>143.14285714285714</ele><time>2026-04-12T08:59:18.994Z</time></trkpt><trkpt lat="45.38029885687563" lon="10.528893334764309"><ele>144.71428571428572</ele><time>2026-04-12T08:59:22.997Z</time></trkpt><trkpt lat="45.380301002421966" lon="10.528992469800206"><ele>146.28571428571428</ele><time>2026-04-12T08:59:26.997Z</time></trkpt><trkpt lat="45.38029692646596" lon="10.529090276927981"><ele>147.85714285714286</ele><time>2026-04-12T08:59:32.997Z</time></trkpt><trkpt lat="45.380284339357324" lon="10.529198259004206"><ele>149.42857142857144</ele><time>2026-04-12T08:59:37.997Z</time></trkpt><trkpt lat="45.38028017870346" lon="10.529289643058156"><ele>151.0</ele><time>2026-04-12T08:59:40.997Z</time></trkpt><trkpt lat="45.3802803066949" lon="10.529380638880323"><ele>151.00000000000003</ele><time>2026-04-12T08:59:43.997Z</time></trkpt><trkpt lat="45.38029209421545" lon="10.52947877566296"><ele>151.0</ele><time>2026-04-12T08:59:46.997Z</time></trkpt><trkpt lat="45.38029641333371" lon="10.529591329638974"><ele>151.0</ele><time>2026-04-12T08:59:49.997Z</time></trkpt><trkpt lat="45.38028976876562" lon="10.529698242872273"><ele>151.0</ele><time>2026-04-12T08:59:52.997Z</time></trkpt><trkpt lat="45.380300593203124" lon="10.52980127028503"><ele>151.0</ele><time>2026-04-12T08:59:55.997Z</time></trkpt><trkpt lat="45.380306961357846" lon="10.529905114478739"><ele>151.00000000000003</ele><time>2026-04-12T08:59:58.996Z</time></trkpt><trkpt lat="45.38031225338627" lon="10.529995914806149"><ele>151.0</ele><time>2026-04-12T09:00:01.996Z</time></trkpt><trkpt lat="45.3803145710316" lon="10.53009127575469"><ele>152.42857142857144</ele><time>2026-04-12T09:00:04.996Z</time></trkpt><trkpt lat="45.38034716891803" lon="10.530190819826231"><ele>153.85714285714286</ele><time>2026-04-12T09:00:07.996Z</time></trkpt><trkpt lat="45.38036427203257" lon="10.530277640886156"><ele>155.28571428571428</ele><time>2026-04-12T09:00:10.996Z</time></trkpt><trkpt lat="45.380389770956974" lon="10.530393026256926"><ele>156.71428571428572</ele><time>2026-04-12T09:00:14.996Z</time></trkpt><trkpt lat="45.38040697438251" lon="10.53049486913599"><ele>158.14285714285714</ele><time>2026-04-12T09:00:17.996Z</time></trkpt><trkpt lat="45.380405462879125" lon="10.530584583014917"><ele>159.57142857142858</ele><time>2026-04-12T09:00:20.996Z</time></trkpt><trkpt lat="45.38040121311195" lon="10.530684435109741"><ele>161.0</ele><time>2026-04-12T09:00:24.996Z</time></trkpt><trkpt lat="45.38041879721754" lon="10.530781754769539"><ele>162.71428571428572</ele><time>2026-04-12T09:00:28.996Z</time></trkpt><trkpt lat="45.38044154390496" lon="10.53089197855565"><ele>164.42857142857144</ele><time>2026-04-12T09:00:32.996Z</time></trkpt><trkpt lat="45.38044297246694" lon="10.531004551541152"><ele>166.14285714285714</ele><time>2026-04-12T09:00:36.996Z</time></trkpt><trkpt lat="45.380445593604655" lon="10.531105854566864"><ele>167.85714285714286</ele><time>2026-04-12T09:00:40.995Z</time></trkpt><trkpt lat="45.38043824680019" lon="10.531210799898908"><ele>169.57142857142858</ele><time>2026-04-12T09:00:44.995Z</time></trkpt><trkpt lat="45.38042937483876" lon="10.531308424216393"><ele>171.28571428571428</ele><time>2026-04-12T09:00:48.995Z</time></trkpt><trkpt lat="45.380416932177724" lon="10.531396317690561"><ele>173.0</ele><time>2026-04-12T09:00:51.995Z</time></trkpt><trkpt lat="45.38039985423617" lon="10.531508461486094"><ele>174.7142857142857</ele><time>2026-04-12T09:00:55.995Z</time></trkpt><trkpt lat="45.380401570577845" lon="10.531618720332963"><ele>176.42857142857144</ele><time>2026-04-12T09:00:59.995Z</time></trkpt><trkpt lat="45.38041623556" lon="10.531721582580026"><ele>178.14285714285714</ele><time>2026-04-12T09:01:03.995Z</time></trkpt><trkpt lat="45.380391870176155" lon="10.5318072294298"><ele>179.85714285714283</ele><time>2026-04-12T09:01:07.995Z</time></trkpt><trkpt lat="45.38035422606251" lon="10.531887799762064"><ele>181.57142857142856</ele><time>2026-04-12T09:01:14.995Z</time></trkpt><trkpt lat="45.38031981592711" lon="10.531984268672836"><ele>183.28571428571428</ele><time>2026-04-12T09:01:18.994Z</time></trkpt><trkpt lat="45.38029668547154" lon="10.532084159929376"><ele>185.0</ele><time>2026-04-12T09:01:21.994Z</time></trkpt><trkpt lat="45.38025592355245" lon="10.532185807325721"><ele>185.16666666666666</ele><time>2026-04-12T09:01:25.997Z</time></trkpt><trkpt lat="45.38020296987568" lon="10.532273074117125"><ele>185.33333333333331</ele><time>2026-04-12T09:01:29.997Z</time></trkpt><trkpt lat="45.38012987028291" lon="10.532317226934275"><ele>185.5</ele><time>2026-04-12T09:01:33.997Z</time></trkpt><trkpt lat="45.380054393882205" lon="10.532371409893857"><ele>185.66666666666666</ele><time>2026-04-12T09:01:37.997Z</time></trkpt><trkpt lat="45.380003113546834" lon="10.53242751784046"><ele>185.83333333333334</ele><time>2026-04-12T09:01:40.997Z</time></trkpt><trkpt lat="45.37992831303893" lon="10.532489688185494"><ele>186.0</ele><time>2026-04-12T09:01:44.997Z</time></trkpt><trkpt lat="45.379884360036" lon="10.532561266254609"><ele>186.00000000000003</ele><time>2026-04-12T09:01:47.997Z</time></trkpt><trkpt lat="45.37983615926556" lon="10.532632125676594"><ele>186.0</ele><time>2026-04-12T09:01:50.997Z</time></trkpt><trkpt lat="45.379771617279175" lon="10.53269507769141"><ele>186.0</ele><time>2026-04-12T09:01:54.997Z</time></trkpt><trkpt lat="45.379707828753205" lon="10.53271287666847"><ele>186.0</ele><time>2026-04-12T09:01:57.996Z</time></trkpt><trkpt lat="45.379644760747304" lon="10.5327913186038"><ele>186.0</ele><time>2026-04-12T09:02:01.996Z</time></trkpt><trkpt lat="45.37960312493914" lon="10.532862044707803"><ele>186.00000000000003</ele><time>2026-04-12T09:02:05.996Z</time></trkpt><trkpt lat="45.37960900608791" lon="10.532983159852995"><ele>186.0</ele><time>2026-04-12T09:02:17.996Z</time></trkpt><trkpt lat="45.379592434678806" lon="10.533071503046791"><ele>186.16666666666666</ele><time>2026-04-12T09:02:21.996Z</time></trkpt><trkpt lat="45.3795930030957" lon="10.533181525228002"><ele>186.33333333333334</ele><time>2026-04-12T09:02:24.996Z</time></trkpt><trkpt lat="45.37960552527345" lon="10.533269395027709"><ele>186.5</ele><time>2026-04-12T09:02:26.996Z</time></trkpt><trkpt lat="45.37962016515614" lon="10.533378451340175"><ele>186.66666666666669</ele><time>2026-04-12T09:02:29.996Z</time></trkpt><trkpt lat="45.37961979689271" lon="10.533493337322934"><ele>186.83333333333334</ele><time>2026-04-12T09:02:32.996Z</time></trkpt><trkpt lat="45.37964274591856" lon="10.53361207844207"><ele>187.0</ele><time>2026-04-12T09:02:35.995Z</time></trkpt><trkpt lat="45.37968717083317" lon="10.53372307968363"><ele>186.16666666666669</ele><time>2026-04-12T09:02:38.995Z</time></trkpt><trkpt lat="45.379726232407286" lon="10.533832757092009"><ele>185.33333333333334</ele><time>2026-04-12T09:02:41.995Z</time></trkpt><trkpt lat="45.37972185201585" lon="10.533941153059647"><ele>184.5</ele><time>2026-04-12T09:02:44.995Z</time></trkpt><trkpt lat="45.379712178613595" lon="10.534047539170134"><ele>183.66666666666666</ele><time>2026-04-12T09:02:47.995Z</time></trkpt><trkpt lat="45.379666759503124" lon="10.534155218565552"><ele>182.83333333333331</ele><time>2026-04-12T09:02:50.995Z</time></trkpt><trkpt lat="45.379619498101086" lon="10.53426362204881"><ele>182.0</ele><time>2026-04-12T09:02:53.995Z</time></trkpt><trkpt lat="45.37959404473891" lon="10.534378230127905"><ele>182.0</ele><time>2026-04-12T09:02:56.995Z</time></trkpt><trkpt lat="45.379587995620376" lon="10.534489821724044"><ele>182.0</ele><time>2026-04-12T09:02:59.995Z</time></trkpt><trkpt lat="45.37956661073019" lon="10.534593202943068"><ele>182.0</ele><time>2026-04-12T09:03:02.995Z</time></trkpt><trkpt lat="45.37952593067467" lon="10.534665326621852"><ele>182.0</ele><time>2026-04-12T09:03:05.995Z</time></trkpt><trkpt lat="45.379470329382976" lon="10.534728891237807"><ele>182.0</ele><time>2026-04-12T09:03:08.995Z</time></trkpt><trkpt lat="45.37942289238994" lon="10.534818918867101"><ele>182.0</ele><time>2026-04-12T09:03:11.995Z</time></trkpt><trkpt lat="45.37937441914898" lon="10.534911425296155"><ele>181.8</ele><time>2026-04-12T09:03:14.995Z</time></trkpt><trkpt lat="45.37932938290642" lon="10.535010429383556"><ele>181.6</ele><time>2026-04-12T09:03:17.994Z</time></trkpt><trkpt lat="45.379281034263364" lon="10.535128681287079"><ele>181.4</ele><time>2026-04-12T09:03:20.994Z</time></trkpt><trkpt lat="45.379242247768744" lon="10.53524639054848"><ele>181.20000000000002</ele><time>2026-04-12T09:03:23.994Z</time></trkpt><trkpt lat="45.37920864645429" lon="10.535369218616673"><ele>181.0</ele><time>2026-04-12T09:03:26.994Z</time></trkpt><trkpt lat="45.37916862024124" lon="10.53548901176531"><ele>180.66666666666669</ele><time>2026-04-12T09:03:29.997Z</time></trkpt><trkpt lat="45.3791240315736" lon="10.535592126209528"><ele>180.33333333333334</ele><time>2026-04-12T09:03:32.997Z</time></trkpt><trkpt lat="45.37907453954302" lon="10.53566582661752"><ele>180.0</ele><time>2026-04-12T09:03:34.996Z</time></trkpt><trkpt lat="45.37905810328964" lon="10.535760339418607"><ele>179.66666666666666</ele><time>2026-04-12T09:03:36.996Z</time></trkpt><trkpt lat="45.37903354823949" lon="10.535875019295931"><ele>179.33333333333331</ele><time>2026-04-12T09:03:38.997Z</time></trkpt><trkpt lat="45.379001201547474" lon="10.5359921257542"><ele>179.0</ele><time>2026-04-12T09:03:40.997Z</time></trkpt><trkpt lat="45.37896745326057" lon="10.536108206559136"><ele>179.0</ele><time>2026-04-12T09:03:42.996Z</time></trkpt><trkpt lat="45.37892909741404" lon="10.536180889212904"><ele>179.0</ele><time>2026-04-12T09:03:44.996Z</time></trkpt><trkpt lat="45.37886864480083" lon="10.536247729009654"><ele>179.0</ele><time>2026-04-12T09:03:47.996Z</time></trkpt><trkpt lat="45.37879529568253" lon="10.536279455704921"><ele>179.0</ele><time>2026-04-12T09:03:50.996Z</time></trkpt><trkpt lat="45.378720353048124" lon="10.536343866094327"><ele>179.0</ele><time>2026-04-12T09:03:53.996Z</time></trkpt><trkpt lat="45.37866637179263" lon="10.536434765519603"><ele>179.0</ele><time>2026-04-12T09:03:56.996Z</time></trkpt><trkpt lat="45.37860630683736" lon="10.536518641856837"><ele>178.16666666666666</ele><time>2026-04-12T09:03:59.996Z</time></trkpt><trkpt lat="45.378571177430715" lon="10.536595468831145"><ele>177.33333333333331</ele><time>2026-04-12T09:04:01.996Z</time></trkpt><trkpt lat="45.378531313244274" lon="10.536675417664565"><ele>176.5</ele><time>2026-04-12T09:04:03.996Z</time></trkpt><trkpt lat="45.37849031203185" lon="10.536758339800471"><ele>175.66666666666666</ele><time>2026-04-12T09:04:05.996Z</time></trkpt><trkpt lat="45.37844615883639" lon="10.536861504580493"><ele>174.83333333333334</ele><time>2026-04-12T09:04:07.996Z</time></trkpt><trkpt lat="45.378439071499024" lon="10.536985043642906"><ele>174.0</ele><time>2026-04-12T09:04:10.996Z</time></trkpt><trkpt lat="45.37839721072089" lon="10.537107338135465"><ele>173.85714285714286</ele><time>2026-04-12T09:04:13.996Z</time></trkpt><trkpt lat="45.37837635199083" lon="10.537191947180638"><ele>173.71428571428572</ele><time>2026-04-12T09:04:15.996Z</time></trkpt><trkpt lat="45.37835366905756" lon="10.537284823756758"><ele>173.57142857142856</ele><time>2026-04-12T09:04:17.996Z</time></trkpt><trkpt lat="45.378322033950134" lon="10.53737123232852"><ele>173.42857142857144</ele><time>2026-04-12T09:04:19.995Z</time></trkpt><trkpt lat="45.378290138337434" lon="10.537464929455586"><ele>173.2857142857143</ele><time>2026-04-12T09:04:21.995Z</time></trkpt><trkpt lat="45.37825142153857" lon="10.537538415562947"><ele>173.14285714285714</ele><time>2026-04-12T09:04:23.995Z</time></trkpt><trkpt lat="45.378214579167455" lon="10.537619014980475"><ele>173.0</ele><time>2026-04-12T09:04:25.995Z</time></trkpt><trkpt lat="45.378178248602495" lon="10.537702438710543"><ele>173.0</ele><time>2026-04-12T09:04:27.995Z</time></trkpt><trkpt lat="45.37812858687744" lon="10.537816698151305"><ele>173.0</ele><time>2026-04-12T09:04:30.995Z</time></trkpt><trkpt lat="45.378072373470474" lon="10.537866737970994"><ele>173.0</ele><time>2026-04-12T09:04:32.995Z</time></trkpt><trkpt lat="45.37800995633349" lon="10.537914590768699"><ele>173.0</ele><time>2026-04-12T09:04:34.995Z</time></trkpt><trkpt lat="45.37793427874142" lon="10.537965151485771"><ele>173.0</ele><time>2026-04-12T09:04:37.995Z</time></trkpt><trkpt lat="45.377857392242234" lon="10.538026280886744"><ele>173.0</ele><time>2026-04-12T09:04:40.995Z</time></trkpt><trkpt lat="45.37777947733102" lon="10.538077373537108"><ele>171.42857142857142</ele><time>2026-04-12T09:04:43.995Z</time></trkpt><trkpt lat="45.377722033260234" lon="10.538125450290185"><ele>169.85714285714286</ele><time>2026-04-12T09:04:45.995Z</time></trkpt><trkpt lat="45.37766755085212" lon="10.538176846900019"><ele>168.28571428571428</ele><time>2026-04-12T09:04:47.995Z</time></trkpt><trkpt lat="45.37760949687491" lon="10.538214171056364"><ele>166.71428571428572</ele><time>2026-04-12T09:04:49.995Z</time></trkpt><trkpt lat="45.377526356634625" lon="10.538268628906359"><ele>165.14285714285714</ele><time>2026-04-12T09:04:52.995Z</time></trkpt><trkpt lat="45.377435055037346" lon="10.538295470747883"><ele>163.57142857142858</ele><time>2026-04-12T09:04:55.995Z</time></trkpt><trkpt lat="45.37737739323041" lon="10.538341233719722"><ele>162.0</ele><time>2026-04-12T09:04:57.995Z</time></trkpt><trkpt lat="45.37729697342993" lon="10.538379020491382"><ele>162.0</ele><time>2026-04-12T09:05:00.994Z</time></trkpt><trkpt lat="45.37721816173426" lon="10.53838523111141"><ele>162.0</ele><time>2026-04-12T09:05:03.994Z</time></trkpt><trkpt lat="45.37715002471095" lon="10.53835768214873"><ele>162.0</ele><time>2026-04-12T09:05:06.994Z</time></trkpt><trkpt lat="45.37708523642595" lon="10.538341942844706"><ele>162.0</ele><time>2026-04-12T09:05:09.994Z</time></trkpt><trkpt lat="45.37700367579315" lon="10.538313754508158"><ele>162.0</ele><time>2026-04-12T09:05:13.994Z</time></trkpt><trkpt lat="45.37694075943848" lon="10.53835223583233"><ele>162.0</ele><time>2026-04-12T09:05:16.994Z</time></trkpt><trkpt lat="45.376886709837365" lon="10.538406514275156"><ele>162.0</ele><time>2026-04-12T09:05:19.994Z</time></trkpt><trkpt lat="45.37680234193972" lon="10.53843243683348"><ele>160.83333333333334</ele><time>2026-04-12T09:05:23.994Z</time></trkpt><trkpt lat="45.37672327890813" lon="10.538473783129856"><ele>159.66666666666666</ele><time>2026-04-12T09:05:26.994Z</time></trkpt><trkpt lat="45.37668426937188" lon="10.53855130234034"><ele>158.5</ele><time>2026-04-12T09:05:28.994Z</time></trkpt><trkpt lat="45.376638078675896" lon="10.538648188246091"><ele>157.33333333333331</ele><time>2026-04-12T09:05:31.994Z</time></trkpt><trkpt lat="45.37659534211991" lon="10.53876180404336"><ele>156.16666666666666</ele><time>2026-04-12T09:05:34.994Z</time></trkpt><trkpt lat="45.37655056816914" lon="10.538852462055814"><ele>155.0</ele><time>2026-04-12T09:05:37.996Z</time></trkpt><trkpt lat="45.376494458920554" lon="10.538941718036675"><ele>155.0</ele><time>2026-04-12T09:05:40.996Z</time></trkpt><trkpt lat="45.376431575509336" lon="10.53903266047733"><ele>155.0</ele><time>2026-04-12T09:05:43.997Z</time></trkpt><trkpt lat="45.37637520417471" lon="10.5391156259119"><ele>155.0</ele><time>2026-04-12T09:05:46.996Z</time></trkpt><trkpt lat="45.37631192659501" lon="10.539168292229716"><ele>155.0</ele><time>2026-04-12T09:05:49.996Z</time></trkpt><trkpt lat="45.37624450003929" lon="10.539219665152489"><ele>155.0</ele><time>2026-04-12T09:05:52.996Z</time></trkpt><trkpt lat="45.37618820879272" lon="10.53931017454671"><ele>155.0</ele><time>2026-04-12T09:05:55.996Z</time></trkpt><trkpt lat="45.3761650035453" lon="10.539411200228814"><ele>154.42857142857144</ele><time>2026-04-12T09:05:58.996Z</time></trkpt><trkpt lat="45.3761506436922" lon="10.539506974591193"><ele>153.85714285714286</ele><time>2026-04-12T09:06:01.996Z</time></trkpt><trkpt lat="45.376134943631286" lon="10.539614553745222"><ele>153.28571428571428</ele><time>2026-04-12T09:06:04.996Z</time></trkpt><trkpt lat="45.37613300473522" lon="10.53971569717092"><ele>152.71428571428572</ele><time>2026-04-12T09:06:07.995Z</time></trkpt><trkpt lat="45.37609339582313" lon="10.539795595305698"><ele>152.14285714285714</ele><time>2026-04-12T09:06:10.995Z</time></trkpt><trkpt lat="45.37601544115053" lon="10.539777376629228"><ele>151.57142857142858</ele><time>2026-04-12T09:06:13.995Z</time></trkpt><trkpt lat="45.37595166915398" lon="10.539755927082547"><ele>151.0</ele><time>2026-04-12T09:06:16.995Z</time></trkpt><trkpt lat="45.375884778545185" lon="10.539757920668746"><ele>151.0</ele><time>2026-04-12T09:06:19.995Z</time></trkpt><trkpt lat="45.375808352151566" lon="10.539764539523725"><ele>151.0</ele><time>2026-04-12T09:06:22.995Z</time></trkpt><trkpt lat="45.37571840891017" lon="10.539774771181246"><ele>151.0</ele><time>2026-04-12T09:06:25.995Z</time></trkpt><trkpt lat="45.37563811182335" lon="10.539767140205043"><ele>151.0</ele><time>2026-04-12T09:06:28.995Z</time></trkpt><trkpt lat="45.375554446167826" lon="10.539787087230314"><ele>151.0</ele><time>2026-04-12T09:06:31.995Z</time></trkpt><trkpt lat="45.37546016249728" lon="10.539786726982765"><ele>151.0</ele><time>2026-04-12T09:06:34.995Z</time></trkpt><trkpt lat="45.37537581296443" lon="10.53979349303373"><ele>150.16666666666669</ele><time>2026-04-12T09:06:37.995Z</time></trkpt><trkpt lat="45.375281951989166" lon="10.539796817275011"><ele>149.33333333333334</ele><time>2026-04-12T09:06:40.995Z</time></trkpt><trkpt lat="45.37518867483388" lon="10.539786904105444"><ele>148.5</ele><time>2026-04-12T09:06:43.995Z</time></trkpt><trkpt lat="45.37511720488323" lon="10.539790589411478"><ele>147.66666666666666</ele><time>2026-04-12T09:06:45.995Z</time></trkpt><trkpt lat="45.37504599858901" lon="10.539786263844327"><ele>146.83333333333331</ele><time>2026-04-12T09:06:47.994Z</time></trkpt><trkpt lat="45.37498252842983" lon="10.53978361941174"><ele>146.0</ele><time>2026-04-12T09:06:49.994Z</time></trkpt><trkpt lat="45.37488503839414" lon="10.539772431331555"><ele>146.0</ele><time>2026-04-12T09:06:52.994Z</time></trkpt><trkpt lat="45.37481851200614" lon="10.539762028599599"><ele>146.0</ele><time>2026-04-12T09:06:54.994Z</time></trkpt><trkpt lat="45.37475617055462" lon="10.539747355555637"><ele>146.0</ele><time>2026-04-12T09:06:56.994Z</time></trkpt><trkpt lat="45.37466586343858" lon="10.539732429354025"><ele>146.0</ele><time>2026-04-12T09:06:59.994Z</time></trkpt><trkpt lat="45.37459734911202" lon="10.539708974233536"><ele>146.0</ele><time>2026-04-12T09:07:01.994Z</time></trkpt><trkpt lat="45.37451941129259" lon="10.539706853469566"><ele>146.0</ele><time>2026-04-12T09:07:03.994Z</time></trkpt><trkpt lat="45.37444107025288" lon="10.539691550129604"><ele>146.0</ele><time>2026-04-12T09:07:05.994Z</time></trkpt><trkpt lat="45.374372845432866" lon="10.539673443927843"><ele>145.14285714285714</ele><time>2026-04-12T09:07:07.994Z</time></trkpt><trkpt lat="45.37431617337181" lon="10.53962055785111"><ele>144.28571428571428</ele><time>2026-04-12T09:07:09.994Z</time></trkpt><trkpt lat="45.37427221449523" lon="10.539535731566849"><ele>143.42857142857144</ele><time>2026-04-12T09:07:11.994Z</time></trkpt><trkpt lat="45.37423658134233" lon="10.539429848149409"><ele>142.57142857142856</ele><time>2026-04-12T09:07:13.994Z</time></trkpt><trkpt lat="45.37420501981609" lon="10.539324990164731"><ele>141.71428571428572</ele><time>2026-04-12T09:07:15.994Z</time></trkpt><trkpt lat="45.37418688747962" lon="10.539226827870356"><ele>140.85714285714286</ele><time>2026-04-12T09:07:17.994Z</time></trkpt><trkpt lat="45.37418793134802" lon="10.539126438266875"><ele>140.0</ele><time>2026-04-12T09:07:19.994Z</time></trkpt><trkpt lat="45.374173039047946" lon="10.539031522434767"><ele>138.66666666666666</ele><time>2026-04-12T09:07:21.994Z</time></trkpt><trkpt lat="45.37419284198606" lon="10.538907990465368"><ele>137.33333333333331</ele><time>2026-04-12T09:07:24.994Z</time></trkpt><trkpt lat="45.374198069918755" lon="10.5388183900752"><ele>136.0</ele><time>2026-04-12T09:07:26.993Z</time></trkpt><trkpt lat="45.374220781601714" lon="10.538690547920137"><ele>134.66666666666666</ele><time>2026-04-12T09:07:29.993Z</time></trkpt><trkpt lat="45.37423788019697" lon="10.53856114159229"><ele>133.33333333333334</ele><time>2026-04-12T09:07:32.993Z</time></trkpt><trkpt lat="45.37425647129294" lon="10.538470677674397"><ele>132.0</ele><time>2026-04-12T09:07:34.993Z</time></trkpt><trkpt lat="45.374278796162855" lon="10.53838043380075"><ele>131.5</ele><time>2026-04-12T09:07:36.993Z</time></trkpt><trkpt lat="45.37428767510438" lon="10.538287842457704"><ele>131.0</ele><time>2026-04-12T09:07:38.993Z</time></trkpt><trkpt lat="45.374291055610044" lon="10.538156321920146"><ele>130.5</ele><time>2026-04-12T09:07:41.996Z</time></trkpt><trkpt lat="45.374293701342246" lon="10.538033606225143"><ele>130.0</ele><time>2026-04-12T09:07:44.996Z</time></trkpt><trkpt lat="45.37431208286027" lon="10.537944580643593"><ele>129.5</ele><time>2026-04-12T09:07:46.996Z</time></trkpt><trkpt lat="45.3743200568928" lon="10.537810860149259"><ele>129.0</ele><time>2026-04-12T09:07:49.996Z</time></trkpt><trkpt lat="45.37432277955399" lon="10.537718280104293"><ele>128.83333333333334</ele><time>2026-04-12T09:07:51.996Z</time></trkpt><trkpt lat="45.37432817881633" lon="10.537589954888888"><ele>128.66666666666666</ele><time>2026-04-12T09:07:54.996Z</time></trkpt><trkpt lat="45.37434106559494" lon="10.537460287610639"><ele>128.5</ele><time>2026-04-12T09:07:57.996Z</time></trkpt><trkpt lat="45.37434710954762" lon="10.53733447021123"><ele>128.33333333333331</ele><time>2026-04-12T09:08:00.996Z</time></trkpt><trkpt lat="45.37435176733199" lon="10.537212840140768"><ele>128.16666666666666</ele><time>2026-04-12T09:08:03.996Z</time></trkpt><trkpt lat="45.3743654629306" lon="10.537113273236791"><ele>128.0</ele><time>2026-04-12T09:08:06.996Z</time></trkpt><trkpt lat="45.37438486918693" lon="10.537024233761072"><ele>129.0</ele><time>2026-04-12T09:08:09.996Z</time></trkpt><trkpt lat="45.37440693429227" lon="10.536908245826716"><ele>130.0</ele><time>2026-04-12T09:08:13.995Z</time></trkpt><trkpt lat="45.3744178537744" lon="10.536814434789488"><ele>131.0</ele><time>2026-04-12T09:08:16.995Z</time></trkpt><trkpt lat="45.37440991730831" lon="10.536694776069867"><ele>132.0</ele><time>2026-04-12T09:08:20.995Z</time></trkpt><trkpt lat="45.37441274652795" lon="10.53656664345285"><ele>133.0</ele><time>2026-04-12T09:08:24.995Z</time></trkpt><trkpt lat="45.37442744135953" lon="10.536465872211972"><ele>134.0</ele><time>2026-04-12T09:08:27.995Z</time></trkpt><trkpt lat="45.37444229387065" lon="10.536372586597789"><ele>134.0</ele><time>2026-04-12T09:08:30.995Z</time></trkpt><trkpt lat="45.37446705610909" lon="10.536266056230485"><ele>134.0</ele><time>2026-04-12T09:08:33.995Z</time></trkpt><trkpt lat="45.37447721461816" lon="10.536153532283572"><ele>134.0</ele><time>2026-04-12T09:08:36.995Z</time></trkpt><trkpt lat="45.37449444569547" lon="10.536040848565507"><ele>134.0</ele><time>2026-04-12T09:08:39.995Z</time></trkpt><trkpt lat="45.3744704847384" lon="10.535954501102172"><ele>134.0</ele><time>2026-04-12T09:08:41.995Z</time></trkpt><trkpt lat="45.374468083683176" lon="10.53583734340333"><ele>134.0</ele><time>2026-04-12T09:08:44.995Z</time></trkpt><trkpt lat="45.37445651268594" lon="10.535724912122927"><ele>135.5</ele><time>2026-04-12T09:08:47.995Z</time></trkpt><trkpt lat="45.37448840447834" lon="10.53563237356212"><ele>137.0</ele><time>2026-04-12T09:08:50.995Z</time></trkpt><trkpt lat="45.374514242230006" lon="10.535525734359789"><ele>138.5</ele><time>2026-04-12T09:08:53.994Z</time></trkpt><trkpt lat="45.374539804721884" lon="10.535414015847572"><ele>140.0</ele><time>2026-04-12T09:08:56.994Z</time></trkpt><trkpt lat="45.37453877777784" lon="10.53530313894824"><ele>141.5</ele><time>2026-04-12T09:08:58.994Z</time></trkpt><trkpt lat="45.37455232701472" lon="10.535172427548174"><ele>143.0</ele><time>2026-04-12T09:09:01.994Z</time></trkpt><trkpt lat="45.374559171952626" lon="10.5350755285429"><ele>143.28571428571428</ele><time>2026-04-12T09:09:03.994Z</time></trkpt><trkpt lat="45.37456988947246" lon="10.534974765647997"><ele>143.57142857142856</ele><time>2026-04-12T09:09:05.994Z</time></trkpt><trkpt lat="45.3745848276395" lon="10.53487775274778"><ele>143.85714285714286</ele><time>2026-04-12T09:09:07.994Z</time></trkpt><trkpt lat="45.374600419010726" lon="10.534778220707443"><ele>144.14285714285714</ele><time>2026-04-12T09:09:09.994Z</time></trkpt><trkpt lat="45.37462458565245" lon="10.534685867457409"><ele>144.42857142857144</ele><time>2026-04-12T09:09:11.994Z</time></trkpt><trkpt lat="45.37466467887751" lon="10.53457798795472"><ele>144.71428571428572</ele><time>2026-04-12T09:09:14.994Z</time></trkpt><trkpt lat="45.37471050258259" lon="10.534505030346185"><ele>145.0</ele><time>2026-04-12T09:09:17.994Z</time></trkpt><trkpt lat="45.37477259992878" lon="10.534418472591158"><ele>143.0</ele><time>2026-04-12T09:09:21.994Z</time></trkpt><trkpt lat="45.37484289994862" lon="10.534405835486428"><ele>141.0</ele><time>2026-04-12T09:09:24.994Z</time></trkpt><trkpt lat="45.37491225044821" lon="10.534397570807782"><ele>139.0</ele><time>2026-04-12T09:09:27.994Z</time></trkpt><trkpt lat="45.37498996359823" lon="10.534387612087016"><ele>137.0</ele><time>2026-04-12T09:09:30.994Z</time></trkpt><trkpt lat="45.37507725399618" lon="10.534367277990643"><ele>135.0</ele><time>2026-04-12T09:09:33.993Z</time></trkpt><trkpt lat="45.37530346243943" lon="10.53435495985065"><ele>135.0</ele><time>2026-04-12T09:09:41.993Z</time></trkpt><trkpt lat="45.37535083737318" lon="10.534283490250784"><ele>135.0</ele><time>2026-04-12T09:09:43.993Z</time></trkpt><trkpt lat="45.37537433144965" lon="10.534170107560806"><ele>135.0</ele><time>2026-04-12T09:09:46.993Z</time></trkpt><trkpt lat="45.375405271983034" lon="10.534086106865269"><ele>135.0</ele><time>2026-04-12T09:09:48.996Z</time></trkpt><trkpt lat="45.37543056219902" lon="10.533972915459824"><ele>135.0</ele><time>2026-04-12T09:09:51.996Z</time></trkpt><trkpt lat="45.37543677139284" lon="10.533854446442902"><ele>135.0</ele><time>2026-04-12T09:09:54.997Z</time></trkpt><trkpt lat="45.3754607427334" lon="10.53373533230359"><ele>134.57142857142856</ele><time>2026-04-12T09:09:57.996Z</time></trkpt><trkpt lat="45.37545482728816" lon="10.533643495710967"><ele>134.14285714285714</ele><time>2026-04-12T09:09:59.996Z</time></trkpt><trkpt lat="45.37546337863467" lon="10.533543403589036"><ele>133.71428571428572</ele><time>2026-04-12T09:10:01.997Z</time></trkpt><trkpt lat="45.37547271531749" lon="10.533443469098316"><ele>133.28571428571428</ele><time>2026-04-12T09:10:03.997Z</time></trkpt><trkpt lat="45.3754635077753" lon="10.533353714053533"><ele>132.85714285714286</ele><time>2026-04-12T09:10:05.997Z</time></trkpt><trkpt lat="45.375469612141515" lon="10.533264150788007"><ele>132.42857142857142</ele><time>2026-04-12T09:10:07.996Z</time></trkpt><trkpt lat="45.37547946074005" lon="10.533144879665532"><ele>132.0</ele><time>2026-04-12T09:10:10.996Z</time></trkpt><trkpt lat="45.37548113509316" lon="10.53301626793819"><ele>132.0</ele><time>2026-04-12T09:10:13.996Z</time></trkpt><trkpt lat="45.37547048879769" lon="10.532904775348614"><ele>132.0</ele><time>2026-04-12T09:10:16.996Z</time></trkpt><trkpt lat="45.37549518892293" lon="10.53277861264179"><ele>132.0</ele><time>2026-04-12T09:10:19.996Z</time></trkpt><trkpt lat="45.37549382571976" lon="10.53267717262926"><ele>132.0</ele><time>2026-04-12T09:10:21.996Z</time></trkpt><trkpt lat="45.37547999810878" lon="10.532581728891751"><ele>132.0</ele><time>2026-04-12T09:10:23.996Z</time></trkpt><trkpt lat="45.37547431744411" lon="10.532488714917626"><ele>132.0</ele><time>2026-04-12T09:10:25.996Z</time></trkpt><trkpt lat="45.37547318586265" lon="10.532394262115243"><ele>132.0</ele><time>2026-04-12T09:10:27.996Z</time></trkpt><trkpt lat="45.375471663295365" lon="10.532288325996344"><ele>131.16666666666666</ele><time>2026-04-12T09:10:29.996Z</time></trkpt><trkpt lat="45.37546894345194" lon="10.532192943024594"><ele>130.33333333333334</ele><time>2026-04-12T09:10:31.996Z</time></trkpt><trkpt lat="45.37543081591594" lon="10.532117198051882"><ele>129.5</ele><time>2026-04-12T09:10:33.996Z</time></trkpt><trkpt lat="45.375372723866626" lon="10.5320566088966"><ele>128.66666666666669</ele><time>2026-04-12T09:10:35.996Z</time></trkpt><trkpt lat="45.37532443450712" lon="10.531996110546418"><ele>127.83333333333334</ele><time>2026-04-12T09:10:37.996Z</time></trkpt><trkpt lat="45.375236890784244" lon="10.532001137341217"><ele>127.0</ele><time>2026-04-12T09:10:40.996Z</time></trkpt><trkpt lat="45.37514095612664" lon="10.532020447764191"><ele>127.00000000000001</ele><time>2026-04-12T09:10:43.996Z</time></trkpt><trkpt lat="45.37507268722814" lon="10.53203609644829"><ele>127.0</ele><time>2026-04-12T09:10:45.996Z</time></trkpt><trkpt lat="45.37500457754006" lon="10.532123114631402"><ele>127.0</ele><time>2026-04-12T09:10:48.995Z</time></trkpt><trkpt lat="45.37492619271095" lon="10.532170812393401"><ele>127.0</ele><time>2026-04-12T09:10:51.995Z</time></trkpt><trkpt lat="45.37484470700653" lon="10.532198387631865"><ele>127.00000000000001</ele><time>2026-04-12T09:10:54.995Z</time></trkpt><trkpt lat="45.37475907443446" lon="10.532169154756735"><ele>127.0</ele><time>2026-04-12T09:10:57.995Z</time></trkpt><trkpt lat="45.37466896593681" lon="10.532166233818602"><ele>126.66666666666667</ele><time>2026-04-12T09:11:00.995Z</time></trkpt><trkpt lat="45.374592680449446" lon="10.532159055942234"><ele>126.33333333333334</ele><time>2026-04-12T09:11:03.995Z</time></trkpt><trkpt lat="45.37452412336914" lon="10.532095363618332"><ele>126.0</ele><time>2026-04-12T09:11:06.995Z</time></trkpt><trkpt lat="45.374468414711835" lon="10.532013090238525"><ele>125.66666666666666</ele><time>2026-04-12T09:11:09.995Z</time></trkpt><trkpt lat="45.374425889962104" lon="10.531936112423283"><ele>125.33333333333333</ele><time>2026-04-12T09:11:12.995Z</time></trkpt><trkpt lat="45.3743809842058" lon="10.531840483236177"><ele>125.0</ele><time>2026-04-12T09:11:15.995Z</time></trkpt><trkpt lat="45.37430695092359" lon="10.531771101362326"><ele>124.99999999999999</ele><time>2026-04-12T09:11:18.995Z</time></trkpt><trkpt lat="45.37423703081065" lon="10.531720711931067"><ele>125.0</ele><time>2026-04-12T09:11:21.995Z</time></trkpt><trkpt lat="45.37417975447702" lon="10.531657560227005"><ele>125.0</ele><time>2026-04-12T09:11:24.995Z</time></trkpt><trkpt lat="45.37411229576202" lon="10.531612205196781"><ele>125.0</ele><time>2026-04-12T09:11:27.994Z</time></trkpt><trkpt lat="45.37402439429976" lon="10.531629317576462"><ele>124.99999999999999</ele><time>2026-04-12T09:11:30.994Z</time></trkpt><trkpt lat="45.37394278538093" lon="10.531622783242073"><ele>125.0</ele><time>2026-04-12T09:11:33.994Z</time></trkpt><trkpt lat="45.37386395863142" lon="10.531636899531772"><ele>124.4</ele><time>2026-04-12T09:11:36.994Z</time></trkpt><trkpt lat="45.37377589315309" lon="10.531668327071452"><ele>123.8</ele><time>2026-04-12T09:11:39.994Z</time></trkpt><trkpt lat="45.3736766302194" lon="10.531679648717514"><ele>123.19999999999999</ele><time>2026-04-12T09:11:42.994Z</time></trkpt><trkpt lat="45.373585951394446" lon="10.531663881954213"><ele>122.6</ele><time>2026-04-12T09:11:45.994Z</time></trkpt><trkpt lat="45.37350433617316" lon="10.5315786806913"><ele>122.0</ele><time>2026-04-12T09:11:48.994Z</time></trkpt><trkpt lat="45.37345998717053" lon="10.531498958524312"><ele>121.99999999999999</ele><time>2026-04-12T09:11:50.994Z</time></trkpt><trkpt lat="45.373414299313225" lon="10.531415290553824"><ele>122.0</ele><time>2026-04-12T09:11:52.994Z</time></trkpt><trkpt lat="45.37337046954166" lon="10.531349061675693"><ele>121.99999999999999</ele><time>2026-04-12T09:11:54.996Z</time></trkpt><trkpt lat="45.37333833297529" lon="10.531261264029578"><ele>121.99999999999999</ele><time>2026-04-12T09:11:57.996Z</time></trkpt><trkpt lat="45.37331449311272" lon="10.53116433674511"><ele>122.0</ele><time>2026-04-12T09:12:00.996Z</time></trkpt><trkpt lat="45.373280393249395" lon="10.531070015909107"><ele>121.99999999999999</ele><time>2026-04-12T09:12:02.996Z</time></trkpt><trkpt lat="45.373219724588054" lon="10.531012920632094"><ele>121.99999999999999</ele><time>2026-04-12T09:12:04.996Z</time></trkpt><trkpt lat="45.373153384130035" lon="10.530974020948786"><ele>121.16666666666666</ele><time>2026-04-12T09:12:06.996Z</time></trkpt><trkpt lat="45.37308182264693" lon="10.530931901218525"><ele>120.33333333333333</ele><time>2026-04-12T09:12:09.996Z</time></trkpt><trkpt lat="45.37299731272441" lon="10.530896366484685"><ele>119.5</ele><time>2026-04-12T09:12:12.996Z</time></trkpt><trkpt lat="45.37291382032639" lon="10.530875334413697"><ele>118.66666666666666</ele><time>2026-04-12T09:12:15.995Z</time></trkpt><trkpt lat="45.372826746414304" lon="10.530870538057753"><ele>117.83333333333333</ele><time>2026-04-12T09:12:18.995Z</time></trkpt><trkpt lat="45.372731804573775" lon="10.53085566126066"><ele>117.0</ele><time>2026-04-12T09:12:21.995Z</time></trkpt><trkpt lat="45.37266026580588" lon="10.530843088227561"><ele>116.57142857142858</ele><time>2026-04-12T09:12:23.995Z</time></trkpt><trkpt lat="45.37259436015107" lon="10.530836066499763"><ele>116.14285714285715</ele><time>2026-04-12T09:12:25.995Z</time></trkpt><trkpt lat="45.37252298074679" lon="10.530831463630456"><ele>115.71428571428572</ele><time>2026-04-12T09:12:27.995Z</time></trkpt><trkpt lat="45.372454015273796" lon="10.530834363844688"><ele>115.28571428571428</ele><time>2026-04-12T09:12:29.995Z</time></trkpt><trkpt lat="45.37239020694805" lon="10.53082084337582"><ele>114.85714285714285</ele><time>2026-04-12T09:12:31.995Z</time></trkpt><trkpt lat="45.37231327830167" lon="10.530814853887463"><ele>114.42857142857142</ele><time>2026-04-12T09:12:34.995Z</time></trkpt><trkpt lat="45.37224460904785" lon="10.530791076345096"><ele>114.0</ele><time>2026-04-12T09:12:37.995Z</time></trkpt><trkpt lat="45.37217899319276" lon="10.530785880892894"><ele>110.0</ele><time>2026-04-12T09:12:40.995Z</time></trkpt><trkpt lat="45.372117782004935" lon="10.530753003911611"><ele>110.0</ele><time>2026-04-12T09:12:46.995Z</time></trkpt><trkpt lat="45.37204850937976" lon="10.53074200878719"><ele>110.0</ele><time>2026-04-12T09:12:56.994Z</time></trkpt></trkseg></trk></gpx>